<?xml version="1.0" encoding="UTF-8" standalone="no" ?>
<gpx xmlns="http://www.topografix.com/GPX/1/1" xmlns:xsi="http://www.w3.org/2001/XMLSchema-instance" xsi:schemaLocation="http://www.topografix.com/GPX/1/1 http://www.topografix.com/GPX/1/1/gpx.xsd" version="1.1" creator="VisuGPX - https://www.visugpx.com">
  <metadata>
    <name>Etapes</name>
    <desc><![CDATA[name=Le Raid Pyrénéen RANDONNEUR
time=2022-08-27T15:37:20Z]]></desc>
  </metadata>
  <trk>
    <name><![CDATA[Etapes_3]]></name>
    <trkseg>
      <trkpt lat="43.23013" lon="-1.30094">
        <ele>114</ele>
        <time>2022-08-27T17:40:00.000Z</time>
      </trkpt>
      <trkpt lat="43.22858" lon="-1.30091">
        <ele>130</ele>
        <time>2022-08-27T17:40:28.000Z</time>
      </trkpt>
      <trkpt lat="43.22825" lon="-1.30099">
        <ele>134</ele>
        <time>2022-08-27T17:40:34.000Z</time>
      </trkpt>
      <trkpt lat="43.228" lon="-1.30112">
        <ele>133</ele>
        <time>2022-08-27T17:40:38.000Z</time>
      </trkpt>
      <trkpt lat="43.22771" lon="-1.30134">
        <ele>129</ele>
        <time>2022-08-27T17:40:44.000Z</time>
      </trkpt>
      <trkpt lat="43.22718" lon="-1.30196">
        <ele>118</ele>
        <time>2022-08-27T17:40:57.000Z</time>
      </trkpt>
      <trkpt lat="43.22688" lon="-1.30223">
        <ele>115</ele>
        <time>2022-08-27T17:41:03.000Z</time>
      </trkpt>
      <trkpt lat="43.22655" lon="-1.30237">
        <ele>113</ele>
        <time>2022-08-27T17:41:09.000Z</time>
      </trkpt>
      <trkpt lat="43.22632" lon="-1.30237">
        <ele>112</ele>
        <time>2022-08-27T17:41:13.000Z</time>
      </trkpt>
      <trkpt lat="43.22593" lon="-1.30223">
        <ele>112</ele>
        <time>2022-08-27T17:41:21.000Z</time>
      </trkpt>
      <trkpt lat="43.22565" lon="-1.30198">
        <ele>115</ele>
        <time>2022-08-27T17:41:26.000Z</time>
      </trkpt>
      <trkpt lat="43.22467" lon="-1.29989">
        <ele>115</ele>
        <time>2022-08-27T17:41:59.000Z</time>
      </trkpt>
      <trkpt lat="43.22435" lon="-1.29926">
        <ele>116</ele>
        <time>2022-08-27T17:42:09.000Z</time>
      </trkpt>
      <trkpt lat="43.22383" lon="-1.29861">
        <ele>114</ele>
        <time>2022-08-27T17:42:21.000Z</time>
      </trkpt>
      <trkpt lat="43.22364" lon="-1.29846">
        <ele>113</ele>
        <time>2022-08-27T17:42:25.000Z</time>
      </trkpt>
      <trkpt lat="43.22306" lon="-1.29811">
        <ele>114</ele>
        <time>2022-08-27T17:42:36.000Z</time>
      </trkpt>
      <trkpt lat="43.22254" lon="-1.29789">
        <ele>116</ele>
        <time>2022-08-27T17:42:46.000Z</time>
      </trkpt>
      <trkpt lat="43.2206" lon="-1.29728">
        <ele>126</ele>
        <time>2022-08-27T17:43:22.000Z</time>
      </trkpt>
      <trkpt lat="43.2202" lon="-1.29712">
        <ele>125</ele>
        <time>2022-08-27T17:43:29.000Z</time>
      </trkpt>
      <trkpt lat="43.21893" lon="-1.2961">
        <ele>119</ele>
        <time>2022-08-27T17:43:55.000Z</time>
      </trkpt>
      <trkpt lat="43.21834" lon="-1.29581">
        <ele>118</ele>
        <time>2022-08-27T17:44:06.000Z</time>
      </trkpt>
      <trkpt lat="43.21558" lon="-1.29485">
        <ele>123</ele>
        <time>2022-08-27T17:44:57.000Z</time>
      </trkpt>
      <trkpt lat="43.21504" lon="-1.29457">
        <ele>127</ele>
        <time>2022-08-27T17:45:07.000Z</time>
      </trkpt>
      <trkpt lat="43.21486" lon="-1.29442">
        <ele>131</ele>
        <time>2022-08-27T17:45:11.000Z</time>
      </trkpt>
      <trkpt lat="43.21457" lon="-1.29412">
        <ele>139</ele>
        <time>2022-08-27T17:45:17.000Z</time>
      </trkpt>
      <trkpt lat="43.21367" lon="-1.29268">
        <ele>137</ele>
        <time>2022-08-27T17:45:42.000Z</time>
      </trkpt>
      <trkpt lat="43.21343" lon="-1.29217">
        <ele>133</ele>
        <time>2022-08-27T17:45:50.000Z</time>
      </trkpt>
      <trkpt lat="43.21339" lon="-1.29189">
        <ele>131</ele>
        <time>2022-08-27T17:45:54.000Z</time>
      </trkpt>
      <trkpt lat="43.21333" lon="-1.29078">
        <ele>131</ele>
        <time>2022-08-27T17:46:08.000Z</time>
      </trkpt>
      <trkpt lat="43.21336" lon="-1.28991">
        <ele>128</ele>
        <time>2022-08-27T17:46:19.000Z</time>
      </trkpt>
      <trkpt lat="43.21343" lon="-1.28899">
        <ele>130</ele>
        <time>2022-08-27T17:46:31.000Z</time>
      </trkpt>
      <trkpt lat="43.21338" lon="-1.28797">
        <ele>128</ele>
        <time>2022-08-27T17:46:45.000Z</time>
      </trkpt>
      <trkpt lat="43.21325" lon="-1.28722">
        <ele>127</ele>
        <time>2022-08-27T17:46:55.000Z</time>
      </trkpt>
      <trkpt lat="43.21315" lon="-1.28688">
        <ele>127</ele>
        <time>2022-08-27T17:46:59.000Z</time>
      </trkpt>
      <trkpt lat="43.21303" lon="-1.28667">
        <ele>128</ele>
        <time>2022-08-27T17:47:03.000Z</time>
      </trkpt>
      <trkpt lat="43.21239" lon="-1.28594">
        <ele>131</ele>
        <time>2022-08-27T17:47:18.000Z</time>
      </trkpt>
      <trkpt lat="43.21201" lon="-1.28532">
        <ele>137</ele>
        <time>2022-08-27T17:47:28.000Z</time>
      </trkpt>
      <trkpt lat="43.21188" lon="-1.28505">
        <ele>137</ele>
        <time>2022-08-27T17:47:32.000Z</time>
      </trkpt>
      <trkpt lat="43.21178" lon="-1.28469">
        <ele>136</ele>
        <time>2022-08-27T17:47:37.000Z</time>
      </trkpt>
      <trkpt lat="43.21165" lon="-1.28392">
        <ele>132</ele>
        <time>2022-08-27T17:47:48.000Z</time>
      </trkpt>
      <trkpt lat="43.21166" lon="-1.28198">
        <ele>125</ele>
        <time>2022-08-27T17:48:13.000Z</time>
      </trkpt>
      <trkpt lat="43.21148" lon="-1.2812">
        <ele>126</ele>
        <time>2022-08-27T17:48:23.000Z</time>
      </trkpt>
      <trkpt lat="43.21139" lon="-1.28102">
        <ele>126</ele>
        <time>2022-08-27T17:48:26.000Z</time>
      </trkpt>
      <trkpt lat="43.21013" lon="-1.27949">
        <ele>135</ele>
        <time>2022-08-27T17:48:56.000Z</time>
      </trkpt>
      <trkpt lat="43.20889" lon="-1.27784">
        <ele>145</ele>
        <time>2022-08-27T17:49:27.000Z</time>
      </trkpt>
      <trkpt lat="43.20855" lon="-1.27727">
        <ele>141</ele>
        <time>2022-08-27T17:49:37.000Z</time>
      </trkpt>
      <trkpt lat="43.20777" lon="-1.27542">
        <ele>130</ele>
        <time>2022-08-27T17:50:04.000Z</time>
      </trkpt>
      <trkpt lat="43.20754" lon="-1.27514">
        <ele>126</ele>
        <time>2022-08-27T17:50:10.000Z</time>
      </trkpt>
      <trkpt lat="43.20701" lon="-1.27479">
        <ele>131</ele>
        <time>2022-08-27T17:50:20.000Z</time>
      </trkpt>
      <trkpt lat="43.20649" lon="-1.27461">
        <ele>133</ele>
        <time>2022-08-27T17:50:30.000Z</time>
      </trkpt>
      <trkpt lat="43.20553" lon="-1.27473">
        <ele>139</ele>
        <time>2022-08-27T17:50:47.000Z</time>
      </trkpt>
      <trkpt lat="43.20512" lon="-1.27471">
        <ele>141</ele>
        <time>2022-08-27T17:50:54.000Z</time>
      </trkpt>
      <trkpt lat="43.20502" lon="-1.27468">
        <ele>141</ele>
        <time>2022-08-27T17:50:56.000Z</time>
      </trkpt>
      <trkpt lat="43.20492" lon="-1.27463">
        <ele>142</ele>
        <time>2022-08-27T17:50:58.000Z</time>
      </trkpt>
      <trkpt lat="43.20462" lon="-1.27432">
        <ele>142</ele>
        <time>2022-08-27T17:51:05.000Z</time>
      </trkpt>
      <trkpt lat="43.20445" lon="-1.27395">
        <ele>143</ele>
        <time>2022-08-27T17:51:10.000Z</time>
      </trkpt>
      <trkpt lat="43.20436" lon="-1.27351">
        <ele>143</ele>
        <time>2022-08-27T17:51:16.000Z</time>
      </trkpt>
      <trkpt lat="43.20435" lon="-1.27273">
        <ele>141</ele>
        <time>2022-08-27T17:51:26.000Z</time>
      </trkpt>
      <trkpt lat="43.2046" lon="-1.27071">
        <ele>140</ele>
        <time>2022-08-27T17:51:53.000Z</time>
      </trkpt>
      <trkpt lat="43.2047" lon="-1.26892">
        <ele>141</ele>
        <time>2022-08-27T17:52:16.000Z</time>
      </trkpt>
      <trkpt lat="43.20468" lon="-1.26829">
        <ele>140</ele>
        <time>2022-08-27T17:52:24.000Z</time>
      </trkpt>
      <trkpt lat="43.2044" lon="-1.26734">
        <ele>146</ele>
        <time>2022-08-27T17:52:38.000Z</time>
      </trkpt>
      <trkpt lat="43.20428" lon="-1.26681">
        <ele>147</ele>
        <time>2022-08-27T17:52:45.000Z</time>
      </trkpt>
      <trkpt lat="43.2037" lon="-1.26271">
        <ele>144</ele>
        <time>2022-08-27T17:53:39.000Z</time>
      </trkpt>
      <trkpt lat="43.20359" lon="-1.26226">
        <ele>142</ele>
        <time>2022-08-27T17:53:45.000Z</time>
      </trkpt>
      <trkpt lat="43.20341" lon="-1.26184">
        <ele>141</ele>
        <time>2022-08-27T17:53:52.000Z</time>
      </trkpt>
      <trkpt lat="43.20327" lon="-1.26159">
        <ele>141</ele>
        <time>2022-08-27T17:53:56.000Z</time>
      </trkpt>
      <trkpt lat="43.20258" lon="-1.2606">
        <ele>143</ele>
        <time>2022-08-27T17:54:14.000Z</time>
      </trkpt>
      <trkpt lat="43.20248" lon="-1.26049">
        <ele>143</ele>
        <time>2022-08-27T17:54:16.000Z</time>
      </trkpt>
      <trkpt lat="43.20226" lon="-1.26031">
        <ele>144</ele>
        <time>2022-08-27T17:54:20.000Z</time>
      </trkpt>
      <trkpt lat="43.20211" lon="-1.26024">
        <ele>145</ele>
        <time>2022-08-27T17:54:23.000Z</time>
      </trkpt>
      <trkpt lat="43.20094" lon="-1.25982">
        <ele>146</ele>
        <time>2022-08-27T17:54:45.000Z</time>
      </trkpt>
      <trkpt lat="43.20033" lon="-1.2595">
        <ele>146</ele>
        <time>2022-08-27T17:54:56.000Z</time>
      </trkpt>
      <trkpt lat="43.20012" lon="-1.25936">
        <ele>144</ele>
        <time>2022-08-27T17:55:00.000Z</time>
      </trkpt>
      <trkpt lat="43.19963" lon="-1.25894">
        <ele>143</ele>
        <time>2022-08-27T17:55:11.000Z</time>
      </trkpt>
      <trkpt lat="43.19893" lon="-1.2581">
        <ele>138</ele>
        <time>2022-08-27T17:55:27.000Z</time>
      </trkpt>
      <trkpt lat="43.19876" lon="-1.25794">
        <ele>139</ele>
        <time>2022-08-27T17:55:31.000Z</time>
      </trkpt>
      <trkpt lat="43.19818" lon="-1.25756">
        <ele>139</ele>
        <time>2022-08-27T17:55:42.000Z</time>
      </trkpt>
      <trkpt lat="43.1972" lon="-1.25698">
        <ele>142</ele>
        <time>2022-08-27T17:56:01.000Z</time>
      </trkpt>
      <trkpt lat="43.19662" lon="-1.25672">
        <ele>142</ele>
        <time>2022-08-27T17:56:12.000Z</time>
      </trkpt>
      <trkpt lat="43.19584" lon="-1.25645">
        <ele>141</ele>
        <time>2022-08-27T17:56:27.000Z</time>
      </trkpt>
      <trkpt lat="43.19465" lon="-1.2564">
        <ele>144</ele>
        <time>2022-08-27T17:56:48.000Z</time>
      </trkpt>
      <trkpt lat="43.19438" lon="-1.25638">
        <ele>144</ele>
        <time>2022-08-27T17:56:53.000Z</time>
      </trkpt>
      <trkpt lat="43.19339" lon="-1.25586">
        <ele>139</ele>
        <time>2022-08-27T17:57:11.000Z</time>
      </trkpt>
      <trkpt lat="43.19248" lon="-1.25542">
        <ele>148</ele>
        <time>2022-08-27T17:57:29.000Z</time>
      </trkpt>
      <trkpt lat="43.19157" lon="-1.25479">
        <ele>146</ele>
        <time>2022-08-27T17:57:47.000Z</time>
      </trkpt>
      <trkpt lat="43.19137" lon="-1.25462">
        <ele>147</ele>
        <time>2022-08-27T17:57:51.000Z</time>
      </trkpt>
      <trkpt lat="43.18997" lon="-1.25297">
        <ele>149</ele>
        <time>2022-08-27T17:58:24.000Z</time>
      </trkpt>
      <trkpt lat="43.18962" lon="-1.25264">
        <ele>148</ele>
        <time>2022-08-27T17:58:31.000Z</time>
      </trkpt>
      <trkpt lat="43.18898" lon="-1.25237">
        <ele>149</ele>
        <time>2022-08-27T17:58:43.000Z</time>
      </trkpt>
      <trkpt lat="43.18865" lon="-1.25232">
        <ele>149</ele>
        <time>2022-08-27T17:58:49.000Z</time>
      </trkpt>
      <trkpt lat="43.18838" lon="-1.25234">
        <ele>151</ele>
        <time>2022-08-27T17:58:54.000Z</time>
      </trkpt>
      <trkpt lat="43.18731" lon="-1.25254">
        <ele>151</ele>
        <time>2022-08-27T17:59:13.000Z</time>
      </trkpt>
      <trkpt lat="43.18709" lon="-1.25267">
        <ele>151</ele>
        <time>2022-08-27T17:59:18.000Z</time>
      </trkpt>
      <trkpt lat="43.18684" lon="-1.25297">
        <ele>151</ele>
        <time>2022-08-27T17:59:23.000Z</time>
      </trkpt>
      <trkpt lat="43.18671" lon="-1.2533">
        <ele>151</ele>
        <time>2022-08-27T17:59:28.000Z</time>
      </trkpt>
      <trkpt lat="43.18647" lon="-1.25532">
        <ele>161</ele>
        <time>2022-08-27T17:59:55.000Z</time>
      </trkpt>
      <trkpt lat="43.18627" lon="-1.25612">
        <ele>165</ele>
        <time>2022-08-27T18:00:06.000Z</time>
      </trkpt>
      <trkpt lat="43.18603" lon="-1.25682">
        <ele>166</ele>
        <time>2022-08-27T18:00:16.000Z</time>
      </trkpt>
      <trkpt lat="43.18572" lon="-1.25728">
        <ele>168</ele>
        <time>2022-08-27T18:00:24.000Z</time>
      </trkpt>
      <trkpt lat="43.18558" lon="-1.2574">
        <ele>168</ele>
        <time>2022-08-27T18:00:27.000Z</time>
      </trkpt>
      <trkpt lat="43.18521" lon="-1.2576">
        <ele>166</ele>
        <time>2022-08-27T18:00:34.000Z</time>
      </trkpt>
      <trkpt lat="43.18494" lon="-1.2577">
        <ele>165</ele>
        <time>2022-08-27T18:00:39.000Z</time>
      </trkpt>
      <trkpt lat="43.1837" lon="-1.25784">
        <ele>168</ele>
        <time>2022-08-27T18:01:01.000Z</time>
      </trkpt>
      <trkpt lat="43.18331" lon="-1.25797">
        <ele>169</ele>
        <time>2022-08-27T18:01:08.000Z</time>
      </trkpt>
      <trkpt lat="43.18291" lon="-1.25817">
        <ele>167</ele>
        <time>2022-08-27T18:01:16.000Z</time>
      </trkpt>
      <trkpt lat="43.18279" lon="-1.25826">
        <ele>165</ele>
        <time>2022-08-27T18:01:18.000Z</time>
      </trkpt>
      <trkpt lat="43.18219" lon="-1.25883">
        <ele>167</ele>
        <time>2022-08-27T18:01:31.000Z</time>
      </trkpt>
      <trkpt lat="43.18184" lon="-1.25921">
        <ele>165</ele>
        <time>2022-08-27T18:01:39.000Z</time>
      </trkpt>
      <trkpt lat="43.1815" lon="-1.25943">
        <ele>165</ele>
        <time>2022-08-27T18:01:46.000Z</time>
      </trkpt>
      <trkpt lat="43.18131" lon="-1.25949">
        <ele>164</ele>
        <time>2022-08-27T18:01:49.000Z</time>
      </trkpt>
      <trkpt lat="43.18096" lon="-1.25953">
        <ele>159</ele>
        <time>2022-08-27T18:01:56.000Z</time>
      </trkpt>
      <trkpt lat="43.18054" lon="-1.25949">
        <ele>154</ele>
        <time>2022-08-27T18:02:03.000Z</time>
      </trkpt>
      <trkpt lat="43.17853" lon="-1.25917">
        <ele>148</ele>
        <time>2022-08-27T18:02:39.000Z</time>
      </trkpt>
      <trkpt lat="43.17825" lon="-1.25906">
        <ele>148</ele>
        <time>2022-08-27T18:02:45.000Z</time>
      </trkpt>
      <trkpt lat="43.17788" lon="-1.25872">
        <ele>149</ele>
        <time>2022-08-27T18:02:52.000Z</time>
      </trkpt>
      <trkpt lat="43.17769" lon="-1.25838">
        <ele>150</ele>
        <time>2022-08-27T18:02:58.000Z</time>
      </trkpt>
      <trkpt lat="43.17455" lon="-1.25183">
        <ele>154</ele>
        <time>2022-08-27T18:04:40.000Z</time>
      </trkpt>
      <trkpt lat="43.17435" lon="-1.25151">
        <ele>155</ele>
        <time>2022-08-27T18:04:45.000Z</time>
      </trkpt>
      <trkpt lat="43.1742" lon="-1.25136">
        <ele>154</ele>
        <time>2022-08-27T18:04:49.000Z</time>
      </trkpt>
      <trkpt lat="43.17405" lon="-1.25128">
        <ele>154</ele>
        <time>2022-08-27T18:04:51.000Z</time>
      </trkpt>
      <trkpt lat="43.1737" lon="-1.25122">
        <ele>154</ele>
        <time>2022-08-27T18:04:58.000Z</time>
      </trkpt>
      <trkpt lat="43.17318" lon="-1.2512">
        <ele>156</ele>
        <time>2022-08-27T18:05:07.000Z</time>
      </trkpt>
      <trkpt lat="43.17296" lon="-1.2511">
        <ele>158</ele>
        <time>2022-08-27T18:05:11.000Z</time>
      </trkpt>
      <trkpt lat="43.17285" lon="-1.251">
        <ele>159</ele>
        <time>2022-08-27T18:05:13.000Z</time>
      </trkpt>
      <trkpt lat="43.17194" lon="-1.24923">
        <ele>168</ele>
        <time>2022-08-27T18:05:42.000Z</time>
      </trkpt>
      <trkpt lat="43.17172" lon="-1.24883">
        <ele>166</ele>
        <time>2022-08-27T18:05:48.000Z</time>
      </trkpt>
      <trkpt lat="43.17107" lon="-1.24816">
        <ele>156</ele>
        <time>2022-08-27T18:06:03.000Z</time>
      </trkpt>
      <trkpt lat="43.16674" lon="-1.24602">
        <ele>156</ele>
        <time>2022-08-27T18:07:25.000Z</time>
      </trkpt>
      <trkpt lat="43.16583" lon="-1.24478">
        <ele>157</ele>
        <time>2022-08-27T18:07:47.000Z</time>
      </trkpt>
      <trkpt lat="43.1643" lon="-1.24272">
        <ele>164</ele>
        <time>2022-08-27T18:08:26.000Z</time>
      </trkpt>
      <trkpt lat="43.16407" lon="-1.24233">
        <ele>164</ele>
        <time>2022-08-27T18:08:32.000Z</time>
      </trkpt>
      <trkpt lat="43.16395" lon="-1.24176">
        <ele>164</ele>
        <time>2022-08-27T18:08:40.000Z</time>
      </trkpt>
      <trkpt lat="43.16378" lon="-1.24125">
        <ele>163</ele>
        <time>2022-08-27T18:08:47.000Z</time>
      </trkpt>
      <trkpt lat="43.16342" lon="-1.24078">
        <ele>164</ele>
        <time>2022-08-27T18:08:56.000Z</time>
      </trkpt>
      <trkpt lat="43.16247" lon="-1.23944">
        <ele>165</ele>
        <time>2022-08-27T18:09:20.000Z</time>
      </trkpt>
      <trkpt lat="43.16204" lon="-1.239">
        <ele>167</ele>
        <time>2022-08-27T18:09:30.000Z</time>
      </trkpt>
      <trkpt lat="43.16196" lon="-1.23884">
        <ele>168</ele>
        <time>2022-08-27T18:09:32.000Z</time>
      </trkpt>
      <trkpt lat="43.16311" lon="-1.23773">
        <ele>168</ele>
        <time>2022-08-27T18:09:57.000Z</time>
      </trkpt>
      <trkpt lat="43.16382" lon="-1.23672">
        <ele>176</ele>
        <time>2022-08-27T18:10:16.000Z</time>
      </trkpt>
      <trkpt lat="43.16406" lon="-1.23616">
        <ele>176</ele>
        <time>2022-08-27T18:10:24.000Z</time>
      </trkpt>
      <trkpt lat="43.16415" lon="-1.23587">
        <ele>175</ele>
        <time>2022-08-27T18:10:28.000Z</time>
      </trkpt>
      <trkpt lat="43.16431" lon="-1.23456">
        <ele>173</ele>
        <time>2022-08-27T18:10:45.000Z</time>
      </trkpt>
      <trkpt lat="43.16444" lon="-1.23436">
        <ele>171</ele>
        <time>2022-08-27T18:10:49.000Z</time>
      </trkpt>
      <trkpt lat="43.16453" lon="-1.23428">
        <ele>170</ele>
        <time>2022-08-27T18:10:51.000Z</time>
      </trkpt>
      <trkpt lat="43.16557" lon="-1.23384">
        <ele>162</ele>
        <time>2022-08-27T18:11:10.000Z</time>
      </trkpt>
      <trkpt lat="43.16558" lon="-1.23376">
        <ele>162</ele>
        <time>2022-08-27T18:11:11.000Z</time>
      </trkpt>
      <trkpt lat="43.16562" lon="-1.23372">
        <ele>162</ele>
        <time>2022-08-27T18:11:12.000Z</time>
      </trkpt>
      <trkpt lat="43.16572" lon="-1.2338">
        <ele>161</ele>
        <time>2022-08-27T18:11:14.000Z</time>
      </trkpt>
      <trkpt lat="43.16862" lon="-1.23263">
        <ele>163</ele>
        <time>2022-08-27T18:12:08.000Z</time>
      </trkpt>
      <trkpt lat="43.16883" lon="-1.23242">
        <ele>165</ele>
        <time>2022-08-27T18:12:13.000Z</time>
      </trkpt>
      <trkpt lat="43.16892" lon="-1.23217">
        <ele>166</ele>
        <time>2022-08-27T18:12:16.000Z</time>
      </trkpt>
      <trkpt lat="43.16891" lon="-1.2301">
        <ele>169</ele>
        <time>2022-08-27T18:12:43.000Z</time>
      </trkpt>
      <trkpt lat="43.16859" lon="-1.22703">
        <ele>170</ele>
        <time>2022-08-27T18:13:24.000Z</time>
      </trkpt>
      <trkpt lat="43.16842" lon="-1.22538">
        <ele>170</ele>
        <time>2022-08-27T18:13:45.000Z</time>
      </trkpt>
      <trkpt lat="43.16746" lon="-1.21685">
        <ele>178</ele>
        <time>2022-08-27T18:15:38.000Z</time>
      </trkpt>
      <trkpt lat="43.16607" lon="-1.20445">
        <ele>187</ele>
        <time>2022-08-27T18:19:38.000Z</time>
      </trkpt>
      <trkpt lat="43.16599" lon="-1.20395">
        <ele>187</ele>
        <time>2022-08-27T18:19:44.000Z</time>
      </trkpt>
      <trkpt lat="43.16586" lon="-1.20387">
        <ele>187</ele>
        <time>2022-08-27T18:19:47.000Z</time>
      </trkpt>
      <trkpt lat="43.16583" lon="-1.20371">
        <ele>187</ele>
        <time>2022-08-27T18:19:49.000Z</time>
      </trkpt>
      <trkpt lat="43.16594" lon="-1.20355">
        <ele>188</ele>
        <time>2022-08-27T18:19:52.000Z</time>
      </trkpt>
      <trkpt lat="43.16601" lon="-1.20356">
        <ele>188</ele>
        <time>2022-08-27T18:19:53.000Z</time>
      </trkpt>
      <trkpt lat="43.16611" lon="-1.20365">
        <ele>188</ele>
        <time>2022-08-27T18:19:55.000Z</time>
      </trkpt>
      <trkpt lat="43.1664" lon="-1.20353">
        <ele>190</ele>
        <time>2022-08-27T18:20:01.000Z</time>
      </trkpt>
      <trkpt lat="43.16675" lon="-1.20311">
        <ele>193</ele>
        <time>2022-08-27T18:20:09.000Z</time>
      </trkpt>
      <trkpt lat="43.16697" lon="-1.20268">
        <ele>195</ele>
        <time>2022-08-27T18:20:16.000Z</time>
      </trkpt>
      <trkpt lat="43.16704" lon="-1.20251">
        <ele>195</ele>
        <time>2022-08-27T18:20:18.000Z</time>
      </trkpt>
      <trkpt lat="43.16726" lon="-1.20177">
        <ele>197</ele>
        <time>2022-08-27T18:20:29.000Z</time>
      </trkpt>
      <trkpt lat="43.16809" lon="-1.19851">
        <ele>199</ele>
        <time>2022-08-27T18:21:13.000Z</time>
      </trkpt>
      <trkpt lat="43.16822" lon="-1.19782">
        <ele>200</ele>
        <time>2022-08-27T18:21:23.000Z</time>
      </trkpt>
      <trkpt lat="43.16831" lon="-1.19713">
        <ele>199</ele>
        <time>2022-08-27T18:21:32.000Z</time>
      </trkpt>
      <trkpt lat="43.16837" lon="-1.19642">
        <ele>198</ele>
        <time>2022-08-27T18:21:41.000Z</time>
      </trkpt>
      <trkpt lat="43.16847" lon="-1.19407">
        <ele>205</ele>
        <time>2022-08-27T18:22:12.000Z</time>
      </trkpt>
      <trkpt lat="43.16889" lon="-1.19009">
        <ele>211</ele>
        <time>2022-08-27T18:23:04.000Z</time>
      </trkpt>
      <trkpt lat="43.16887" lon="-1.19004">
        <ele>211</ele>
        <time>2022-08-27T18:23:05.000Z</time>
      </trkpt>
      <trkpt lat="43.16916" lon="-1.18853">
        <ele>195</ele>
        <time>2022-08-27T18:23:25.000Z</time>
      </trkpt>
      <trkpt lat="43.16929" lon="-1.18821">
        <ele>193</ele>
        <time>2022-08-27T18:23:30.000Z</time>
      </trkpt>
      <trkpt lat="43.16964" lon="-1.18755">
        <ele>192</ele>
        <time>2022-08-27T18:23:40.000Z</time>
      </trkpt>
      <trkpt lat="43.16996" lon="-1.18717">
        <ele>192</ele>
        <time>2022-08-27T18:23:48.000Z</time>
      </trkpt>
      <trkpt lat="43.18191" lon="-1.17752">
        <ele>199</ele>
        <time>2022-08-27T18:27:55.000Z</time>
      </trkpt>
      <trkpt lat="43.18228" lon="-1.17716">
        <ele>201</ele>
        <time>2022-08-27T18:28:03.000Z</time>
      </trkpt>
      <trkpt lat="43.18278" lon="-1.17657">
        <ele>203</ele>
        <time>2022-08-27T18:28:14.000Z</time>
      </trkpt>
      <trkpt lat="43.18295" lon="-1.17619">
        <ele>203</ele>
        <time>2022-08-27T18:28:20.000Z</time>
      </trkpt>
      <trkpt lat="43.18368" lon="-1.17252">
        <ele>200</ele>
        <time>2022-08-27T18:29:10.000Z</time>
      </trkpt>
      <trkpt lat="43.18398" lon="-1.17197">
        <ele>199</ele>
        <time>2022-08-27T18:29:19.000Z</time>
      </trkpt>
      <trkpt lat="43.18534" lon="-1.17065">
        <ele>200</ele>
        <time>2022-08-27T18:29:48.000Z</time>
      </trkpt>
      <trkpt lat="43.18629" lon="-1.16979">
        <ele>204</ele>
        <time>2022-08-27T18:30:09.000Z</time>
      </trkpt>
      <trkpt lat="43.18741" lon="-1.16888">
        <ele>214</ele>
        <time>2022-08-27T18:30:32.000Z</time>
      </trkpt>
      <trkpt lat="43.18807" lon="-1.16831">
        <ele>220</ele>
        <time>2022-08-27T18:30:46.000Z</time>
      </trkpt>
      <trkpt lat="43.19055" lon="-1.16562">
        <ele>230</ele>
        <time>2022-08-27T18:31:42.000Z</time>
      </trkpt>
      <trkpt lat="43.19095" lon="-1.16523">
        <ele>232</ele>
        <time>2022-08-27T18:31:51.000Z</time>
      </trkpt>
      <trkpt lat="43.19125" lon="-1.16506">
        <ele>234</ele>
        <time>2022-08-27T18:31:56.000Z</time>
      </trkpt>
      <trkpt lat="43.19229" lon="-1.16498">
        <ele>236</ele>
        <time>2022-08-27T18:32:15.000Z</time>
      </trkpt>
      <trkpt lat="43.19257" lon="-1.16487">
        <ele>237</ele>
        <time>2022-08-27T18:32:20.000Z</time>
      </trkpt>
      <trkpt lat="43.19282" lon="-1.16467">
        <ele>237</ele>
        <time>2022-08-27T18:32:25.000Z</time>
      </trkpt>
      <trkpt lat="43.19338" lon="-1.16415">
        <ele>235</ele>
        <time>2022-08-27T18:32:37.000Z</time>
      </trkpt>
      <trkpt lat="43.1938" lon="-1.16358">
        <ele>225</ele>
        <time>2022-08-27T18:32:48.000Z</time>
      </trkpt>
      <trkpt lat="43.19386" lon="-1.16353">
        <ele>224</ele>
        <time>2022-08-27T18:32:49.000Z</time>
      </trkpt>
      <trkpt lat="43.19483" lon="-1.1616">
        <ele>216</ele>
        <time>2022-08-27T18:33:20.000Z</time>
      </trkpt>
      <trkpt lat="43.19726" lon="-1.15655">
        <ele>223</ele>
        <time>2022-08-27T18:34:38.000Z</time>
      </trkpt>
      <trkpt lat="43.19739" lon="-1.15621">
        <ele>224</ele>
        <time>2022-08-27T18:34:43.000Z</time>
      </trkpt>
      <trkpt lat="43.1976" lon="-1.15561">
        <ele>225</ele>
        <time>2022-08-27T18:34:52.000Z</time>
      </trkpt>
      <trkpt lat="43.19814" lon="-1.15256">
        <ele>233</ele>
        <time>2022-08-27T18:35:32.000Z</time>
      </trkpt>
      <trkpt lat="43.19836" lon="-1.15197">
        <ele>234</ele>
        <time>2022-08-27T18:35:41.000Z</time>
      </trkpt>
      <trkpt lat="43.19872" lon="-1.1514">
        <ele>234</ele>
        <time>2022-08-27T18:35:51.000Z</time>
      </trkpt>
      <trkpt lat="43.19902" lon="-1.1511">
        <ele>234</ele>
        <time>2022-08-27T18:35:57.000Z</time>
      </trkpt>
      <trkpt lat="43.19925" lon="-1.1509">
        <ele>232</ele>
        <time>2022-08-27T18:36:02.000Z</time>
      </trkpt>
      <trkpt lat="43.19947" lon="-1.15077">
        <ele>231</ele>
        <time>2022-08-27T18:36:07.000Z</time>
      </trkpt>
      <trkpt lat="43.20027" lon="-1.15041">
        <ele>228</ele>
        <time>2022-08-27T18:36:22.000Z</time>
      </trkpt>
      <trkpt lat="43.20178" lon="-1.14911">
        <ele>231</ele>
        <time>2022-08-27T18:36:53.000Z</time>
      </trkpt>
      <trkpt lat="43.20322" lon="-1.14773">
        <ele>236</ele>
        <time>2022-08-27T18:37:25.000Z</time>
      </trkpt>
      <trkpt lat="43.20387" lon="-1.14686">
        <ele>238</ele>
        <time>2022-08-27T18:37:41.000Z</time>
      </trkpt>
      <trkpt lat="43.20521" lon="-1.14516">
        <ele>240</ele>
        <time>2022-08-27T18:38:13.000Z</time>
      </trkpt>
      <trkpt lat="43.20675" lon="-1.14245">
        <ele>245</ele>
        <time>2022-08-27T18:38:58.000Z</time>
      </trkpt>
      <trkpt lat="43.20722" lon="-1.14177">
        <ele>248</ele>
        <time>2022-08-27T18:39:10.000Z</time>
      </trkpt>
      <trkpt lat="43.20979" lon="-1.13838">
        <ele>261</ele>
        <time>2022-08-27T18:40:13.000Z</time>
      </trkpt>
      <trkpt lat="43.21068" lon="-1.13718">
        <ele>270</ele>
        <time>2022-08-27T18:40:36.000Z</time>
      </trkpt>
      <trkpt lat="43.21227" lon="-1.13559">
        <ele>264</ele>
        <time>2022-08-27T18:41:11.000Z</time>
      </trkpt>
      <trkpt lat="43.21287" lon="-1.13464">
        <ele>249</ele>
        <time>2022-08-27T18:41:27.000Z</time>
      </trkpt>
      <trkpt lat="43.21339" lon="-1.13355">
        <ele>240</ele>
        <time>2022-08-27T18:41:44.000Z</time>
      </trkpt>
      <trkpt lat="43.21351" lon="-1.13301">
        <ele>240</ele>
        <time>2022-08-27T18:41:51.000Z</time>
      </trkpt>
      <trkpt lat="43.21355" lon="-1.13045">
        <ele>222</ele>
        <time>2022-08-27T18:42:25.000Z</time>
      </trkpt>
      <trkpt lat="43.21364" lon="-1.12972">
        <ele>218</ele>
        <time>2022-08-27T18:42:34.000Z</time>
      </trkpt>
      <trkpt lat="43.21375" lon="-1.12929">
        <ele>216</ele>
        <time>2022-08-27T18:42:40.000Z</time>
      </trkpt>
      <trkpt lat="43.21392" lon="-1.12885">
        <ele>212</ele>
        <time>2022-08-27T18:42:47.000Z</time>
      </trkpt>
      <trkpt lat="43.21458" lon="-1.12737">
        <ele>203</ele>
        <time>2022-08-27T18:43:09.000Z</time>
      </trkpt>
      <trkpt lat="43.21515" lon="-1.126">
        <ele>201</ele>
        <time>2022-08-27T18:43:30.000Z</time>
      </trkpt>
      <trkpt lat="43.21545" lon="-1.12549">
        <ele>201</ele>
        <time>2022-08-27T18:43:38.000Z</time>
      </trkpt>
      <trkpt lat="43.21564" lon="-1.12524">
        <ele>199</ele>
        <time>2022-08-27T18:43:43.000Z</time>
      </trkpt>
      <trkpt lat="43.21863" lon="-1.12224">
        <ele>173</ele>
        <time>2022-08-27T18:44:49.000Z</time>
      </trkpt>
      <trkpt lat="43.21948" lon="-1.12131">
        <ele>174</ele>
        <time>2022-08-27T18:45:08.000Z</time>
      </trkpt>
      <trkpt lat="43.2208" lon="-1.11947">
        <ele>177</ele>
        <time>2022-08-27T18:45:41.000Z</time>
      </trkpt>
      <trkpt lat="43.22117" lon="-1.11888">
        <ele>176</ele>
        <time>2022-08-27T18:45:52.000Z</time>
      </trkpt>
      <trkpt lat="43.2222" lon="-1.11702">
        <ele>163</ele>
        <time>2022-08-27T18:46:22.000Z</time>
      </trkpt>
      <trkpt lat="43.22419" lon="-1.11323">
        <ele>163</ele>
        <time>2022-08-27T18:47:22.000Z</time>
      </trkpt>
      <trkpt lat="43.2247" lon="-1.11203">
        <ele>159</ele>
        <time>2022-08-27T18:47:40.000Z</time>
      </trkpt>
      <trkpt lat="43.22525" lon="-1.11093">
        <ele>156</ele>
        <time>2022-08-27T18:47:58.000Z</time>
      </trkpt>
      <trkpt lat="43.22975" lon="-1.1026">
        <ele>163</ele>
        <time>2022-08-27T18:50:12.000Z</time>
      </trkpt>
      <trkpt lat="43.22981" lon="-1.10245">
        <ele>164</ele>
        <time>2022-08-27T18:50:14.000Z</time>
      </trkpt>
      <trkpt lat="43.23026" lon="-1.10178">
        <ele>169</ele>
        <time>2022-08-27T18:50:26.000Z</time>
      </trkpt>
      <trkpt lat="43.23051" lon="-1.10134">
        <ele>170</ele>
        <time>2022-08-27T18:50:34.000Z</time>
      </trkpt>
      <trkpt lat="43.23257" lon="-1.0973">
        <ele>155</ele>
        <time>2022-08-27T18:51:37.000Z</time>
      </trkpt>
      <trkpt lat="43.23309" lon="-1.09644">
        <ele>160</ele>
        <time>2022-08-27T18:51:52.000Z</time>
      </trkpt>
      <trkpt lat="43.2331" lon="-1.09629">
        <ele>161</ele>
        <time>2022-08-27T18:51:54.000Z</time>
      </trkpt>
      <trkpt lat="43.23294" lon="-1.09609">
        <ele>161</ele>
        <time>2022-08-27T18:51:58.000Z</time>
      </trkpt>
      <trkpt lat="43.23233" lon="-1.09554">
        <ele>159</ele>
        <time>2022-08-27T18:52:11.000Z</time>
      </trkpt>
      <trkpt lat="43.23191" lon="-1.09511">
        <ele>157</ele>
        <time>2022-08-27T18:52:20.000Z</time>
      </trkpt>
      <trkpt lat="43.23108" lon="-1.09358">
        <ele>154</ele>
        <time>2022-08-27T18:52:45.000Z</time>
      </trkpt>
      <trkpt lat="43.23097" lon="-1.09343">
        <ele>154</ele>
        <time>2022-08-27T18:52:48.000Z</time>
      </trkpt>
      <trkpt lat="43.22636" lon="-1.08836">
        <ele>147</ele>
        <time>2022-08-27T18:54:33.000Z</time>
      </trkpt>
      <trkpt lat="43.22602" lon="-1.08807">
        <ele>151</ele>
        <time>2022-08-27T18:54:40.000Z</time>
      </trkpt>
      <trkpt lat="43.21313" lon="-1.0842">
        <ele>160</ele>
        <time>2022-08-27T18:58:35.000Z</time>
      </trkpt>
      <trkpt lat="43.21287" lon="-1.084">
        <ele>159</ele>
        <time>2022-08-27T18:58:40.000Z</time>
      </trkpt>
      <trkpt lat="43.20823" lon="-1.07715">
        <ele>151</ele>
        <time>2022-08-27T19:00:41.000Z</time>
      </trkpt>
      <trkpt lat="43.20705" lon="-1.07531">
        <ele>151</ele>
        <time>2022-08-27T19:01:13.000Z</time>
      </trkpt>
      <trkpt lat="43.20617" lon="-1.07375">
        <ele>159</ele>
        <time>2022-08-27T19:01:39.000Z</time>
      </trkpt>
      <trkpt lat="43.20504" lon="-1.07165">
        <ele>160</ele>
        <time>2022-08-27T19:02:13.000Z</time>
      </trkpt>
      <trkpt lat="43.20391" lon="-1.06993">
        <ele>160</ele>
        <time>2022-08-27T19:02:43.000Z</time>
      </trkpt>
      <trkpt lat="43.20371" lon="-1.06959">
        <ele>161</ele>
        <time>2022-08-27T19:02:48.000Z</time>
      </trkpt>
      <trkpt lat="43.20123" lon="-1.06436">
        <ele>175</ele>
        <time>2022-08-27T19:04:09.000Z</time>
      </trkpt>
      <trkpt lat="43.20087" lon="-1.06362">
        <ele>172</ele>
        <time>2022-08-27T19:04:21.000Z</time>
      </trkpt>
      <trkpt lat="43.20002" lon="-1.06246">
        <ele>169</ele>
        <time>2022-08-27T19:04:42.000Z</time>
      </trkpt>
      <trkpt lat="43.19862" lon="-1.06087">
        <ele>164</ele>
        <time>2022-08-27T19:05:15.000Z</time>
      </trkpt>
      <trkpt lat="43.19803" lon="-1.06024">
        <ele>176</ele>
        <time>2022-08-27T19:05:28.000Z</time>
      </trkpt>
      <trkpt lat="43.1975" lon="-1.05993">
        <ele>179</ele>
        <time>2022-08-27T19:05:38.000Z</time>
      </trkpt>
      <trkpt lat="43.19594" lon="-1.05901">
        <ele>181</ele>
        <time>2022-08-27T19:06:08.000Z</time>
      </trkpt>
      <trkpt lat="43.19532" lon="-1.05887">
        <ele>176</ele>
        <time>2022-08-27T19:06:20.000Z</time>
      </trkpt>
      <trkpt lat="43.19509" lon="-1.05865">
        <ele>175</ele>
        <time>2022-08-27T19:06:25.000Z</time>
      </trkpt>
      <trkpt lat="43.19477" lon="-1.05827">
        <ele>175</ele>
        <time>2022-08-27T19:06:32.000Z</time>
      </trkpt>
      <trkpt lat="43.19468" lon="-1.05813">
        <ele>176</ele>
        <time>2022-08-27T19:06:35.000Z</time>
      </trkpt>
      <trkpt lat="43.19437" lon="-1.05656">
        <ele>178</ele>
        <time>2022-08-27T19:06:56.000Z</time>
      </trkpt>
      <trkpt lat="43.194" lon="-1.05575">
        <ele>177</ele>
        <time>2022-08-27T19:07:08.000Z</time>
      </trkpt>
      <trkpt lat="43.1934" lon="-1.05499">
        <ele>183</ele>
        <time>2022-08-27T19:07:23.000Z</time>
      </trkpt>
      <trkpt lat="43.19329" lon="-1.05489">
        <ele>185</ele>
        <time>2022-08-27T19:07:25.000Z</time>
      </trkpt>
      <trkpt lat="43.19245" lon="-1.05467">
        <ele>192</ele>
        <time>2022-08-27T19:07:40.000Z</time>
      </trkpt>
      <trkpt lat="43.19222" lon="-1.05446">
        <ele>192</ele>
        <time>2022-08-27T19:07:45.000Z</time>
      </trkpt>
      <trkpt lat="43.19144" lon="-1.05319">
        <ele>201</ele>
        <time>2022-08-27T19:08:07.000Z</time>
      </trkpt>
      <trkpt lat="43.19099" lon="-1.05243">
        <ele>205</ele>
        <time>2022-08-27T19:08:20.000Z</time>
      </trkpt>
      <trkpt lat="43.18982" lon="-1.05127">
        <ele>210</ele>
        <time>2022-08-27T19:08:45.000Z</time>
      </trkpt>
      <trkpt lat="43.18963" lon="-1.05098">
        <ele>212</ele>
        <time>2022-08-27T19:08:51.000Z</time>
      </trkpt>
      <trkpt lat="43.18925" lon="-1.05">
        <ele>213</ele>
        <time>2022-08-27T19:09:05.000Z</time>
      </trkpt>
      <trkpt lat="43.18839" lon="-1.04773">
        <ele>224</ele>
        <time>2022-08-27T19:09:38.000Z</time>
      </trkpt>
      <trkpt lat="43.18805" lon="-1.04659">
        <ele>219</ele>
        <time>2022-08-27T19:09:54.000Z</time>
      </trkpt>
      <trkpt lat="43.188" lon="-1.04621">
        <ele>218</ele>
        <time>2022-08-27T19:09:59.000Z</time>
      </trkpt>
      <trkpt lat="43.18813" lon="-1.04528">
        <ele>214</ele>
        <time>2022-08-27T19:10:12.000Z</time>
      </trkpt>
      <trkpt lat="43.18823" lon="-1.04507">
        <ele>213</ele>
        <time>2022-08-27T19:10:15.000Z</time>
      </trkpt>
      <trkpt lat="43.18834" lon="-1.04494">
        <ele>214</ele>
        <time>2022-08-27T19:10:17.000Z</time>
      </trkpt>
      <trkpt lat="43.18844" lon="-1.04487">
        <ele>217</ele>
        <time>2022-08-27T19:10:19.000Z</time>
      </trkpt>
      <trkpt lat="43.1891" lon="-1.04462">
        <ele>230</ele>
        <time>2022-08-27T19:10:32.000Z</time>
      </trkpt>
      <trkpt lat="43.18924" lon="-1.04452">
        <ele>231</ele>
        <time>2022-08-27T19:10:34.000Z</time>
      </trkpt>
      <trkpt lat="43.18941" lon="-1.04393">
        <ele>225</ele>
        <time>2022-08-27T19:10:43.000Z</time>
      </trkpt>
      <trkpt lat="43.18936" lon="-1.04374">
        <ele>223</ele>
        <time>2022-08-27T19:10:46.000Z</time>
      </trkpt>
      <trkpt lat="43.18914" lon="-1.04341">
        <ele>219</ele>
        <time>2022-08-27T19:10:51.000Z</time>
      </trkpt>
      <trkpt lat="43.18901" lon="-1.04337">
        <ele>220</ele>
        <time>2022-08-27T19:10:54.000Z</time>
      </trkpt>
      <trkpt lat="43.18871" lon="-1.04337">
        <ele>222</ele>
        <time>2022-08-27T19:10:59.000Z</time>
      </trkpt>
      <trkpt lat="43.18814" lon="-1.04355">
        <ele>223</ele>
        <time>2022-08-27T19:11:10.000Z</time>
      </trkpt>
      <trkpt lat="43.18772" lon="-1.04357">
        <ele>225</ele>
        <time>2022-08-27T19:11:17.000Z</time>
      </trkpt>
      <trkpt lat="43.18691" lon="-1.04332">
        <ele>233</ele>
        <time>2022-08-27T19:11:32.000Z</time>
      </trkpt>
      <trkpt lat="43.18654" lon="-1.04306">
        <ele>238</ele>
        <time>2022-08-27T19:11:39.000Z</time>
      </trkpt>
      <trkpt lat="43.18631" lon="-1.04273">
        <ele>240</ele>
        <time>2022-08-27T19:11:45.000Z</time>
      </trkpt>
      <trkpt lat="43.18613" lon="-1.04233">
        <ele>244</ele>
        <time>2022-08-27T19:11:51.000Z</time>
      </trkpt>
      <trkpt lat="43.18573" lon="-1.0406">
        <ele>259</ele>
        <time>2022-08-27T19:12:15.000Z</time>
      </trkpt>
      <trkpt lat="43.18561" lon="-1.03987">
        <ele>264</ele>
        <time>2022-08-27T19:12:25.000Z</time>
      </trkpt>
      <trkpt lat="43.18559" lon="-1.0395">
        <ele>267</ele>
        <time>2022-08-27T19:12:29.000Z</time>
      </trkpt>
      <trkpt lat="43.18564" lon="-1.03906">
        <ele>271</ele>
        <time>2022-08-27T19:12:35.000Z</time>
      </trkpt>
      <trkpt lat="43.18631" lon="-1.03676">
        <ele>283</ele>
        <time>2022-08-27T19:13:07.000Z</time>
      </trkpt>
      <trkpt lat="43.18651" lon="-1.03591">
        <ele>289</ele>
        <time>2022-08-27T19:13:19.000Z</time>
      </trkpt>
      <trkpt lat="43.18691" lon="-1.03217">
        <ele>307</ele>
        <time>2022-08-27T19:14:08.000Z</time>
      </trkpt>
      <trkpt lat="43.18706" lon="-1.03162">
        <ele>309</ele>
        <time>2022-08-27T19:14:16.000Z</time>
      </trkpt>
      <trkpt lat="43.18731" lon="-1.03117">
        <ele>312</ele>
        <time>2022-08-27T19:14:23.000Z</time>
      </trkpt>
      <trkpt lat="43.18774" lon="-1.03071">
        <ele>322</ele>
        <time>2022-08-27T19:14:33.000Z</time>
      </trkpt>
      <trkpt lat="43.18777" lon="-1.03065">
        <ele>323</ele>
        <time>2022-08-27T19:14:34.000Z</time>
      </trkpt>
      <trkpt lat="43.18822" lon="-1.02915">
        <ele>318</ele>
        <time>2022-08-27T19:14:55.000Z</time>
      </trkpt>
      <trkpt lat="43.18834" lon="-1.02892">
        <ele>319</ele>
        <time>2022-08-27T19:14:58.000Z</time>
      </trkpt>
      <trkpt lat="43.18858" lon="-1.02864">
        <ele>323</ele>
        <time>2022-08-27T19:15:04.000Z</time>
      </trkpt>
      <trkpt lat="43.18922" lon="-1.0283">
        <ele>335</ele>
        <time>2022-08-27T19:15:16.000Z</time>
      </trkpt>
      <trkpt lat="43.18934" lon="-1.02817">
        <ele>338</ele>
        <time>2022-08-27T19:15:19.000Z</time>
      </trkpt>
      <trkpt lat="43.18949" lon="-1.02757">
        <ele>335</ele>
        <time>2022-08-27T19:15:27.000Z</time>
      </trkpt>
      <trkpt lat="43.18959" lon="-1.02732">
        <ele>336</ele>
        <time>2022-08-27T19:15:31.000Z</time>
      </trkpt>
      <trkpt lat="43.19055" lon="-1.02572">
        <ele>347</ele>
        <time>2022-08-27T19:15:58.000Z</time>
      </trkpt>
      <trkpt lat="43.19094" lon="-1.02513">
        <ele>352</ele>
        <time>2022-08-27T19:16:08.000Z</time>
      </trkpt>
      <trkpt lat="43.19143" lon="-1.02412">
        <ele>356</ele>
        <time>2022-08-27T19:16:24.000Z</time>
      </trkpt>
      <trkpt lat="43.19163" lon="-1.02377">
        <ele>358</ele>
        <time>2022-08-27T19:16:30.000Z</time>
      </trkpt>
      <trkpt lat="43.19202" lon="-1.02327">
        <ele>358</ele>
        <time>2022-08-27T19:16:39.000Z</time>
      </trkpt>
      <trkpt lat="43.19224" lon="-1.02313">
        <ele>359</ele>
        <time>2022-08-27T19:16:43.000Z</time>
      </trkpt>
      <trkpt lat="43.19242" lon="-1.02313">
        <ele>362</ele>
        <time>2022-08-27T19:16:47.000Z</time>
      </trkpt>
      <trkpt lat="43.19261" lon="-1.02319">
        <ele>364</ele>
        <time>2022-08-27T19:16:50.000Z</time>
      </trkpt>
      <trkpt lat="43.19374" lon="-1.02427">
        <ele>393</ele>
        <time>2022-08-27T19:17:15.000Z</time>
      </trkpt>
      <trkpt lat="43.19404" lon="-1.02449">
        <ele>399</ele>
        <time>2022-08-27T19:17:21.000Z</time>
      </trkpt>
      <trkpt lat="43.19465" lon="-1.02463">
        <ele>402</ele>
        <time>2022-08-27T19:17:32.000Z</time>
      </trkpt>
      <trkpt lat="43.19556" lon="-1.02452">
        <ele>400</ele>
        <time>2022-08-27T19:17:48.000Z</time>
      </trkpt>
      <trkpt lat="43.19655" lon="-1.02387">
        <ele>391</ele>
        <time>2022-08-27T19:18:07.000Z</time>
      </trkpt>
      <trkpt lat="43.1967" lon="-1.02373">
        <ele>391</ele>
        <time>2022-08-27T19:18:11.000Z</time>
      </trkpt>
      <trkpt lat="43.19686" lon="-1.02348">
        <ele>390</ele>
        <time>2022-08-27T19:18:15.000Z</time>
      </trkpt>
      <trkpt lat="43.19697" lon="-1.02324">
        <ele>389</ele>
        <time>2022-08-27T19:18:19.000Z</time>
      </trkpt>
      <trkpt lat="43.1974" lon="-1.02185">
        <ele>393</ele>
        <time>2022-08-27T19:18:38.000Z</time>
      </trkpt>
      <trkpt lat="43.19758" lon="-1.02149">
        <ele>396</ele>
        <time>2022-08-27T19:18:44.000Z</time>
      </trkpt>
      <trkpt lat="43.1995" lon="-1.01911">
        <ele>406</ele>
        <time>2022-08-27T19:19:30.000Z</time>
      </trkpt>
      <trkpt lat="43.2001" lon="-1.01799">
        <ele>412</ele>
        <time>2022-08-27T19:19:48.000Z</time>
      </trkpt>
      <trkpt lat="43.20124" lon="-1.01376">
        <ele>439</ele>
        <time>2022-08-27T19:20:47.000Z</time>
      </trkpt>
      <trkpt lat="43.20128" lon="-1.01342">
        <ele>443</ele>
        <time>2022-08-27T19:20:51.000Z</time>
      </trkpt>
      <trkpt lat="43.20121" lon="-1.0129">
        <ele>452</ele>
        <time>2022-08-27T19:20:58.000Z</time>
      </trkpt>
      <trkpt lat="43.20116" lon="-1.01201">
        <ele>458</ele>
        <time>2022-08-27T19:21:10.000Z</time>
      </trkpt>
      <trkpt lat="43.2009" lon="-1.01054">
        <ele>469</ele>
        <time>2022-08-27T19:21:29.000Z</time>
      </trkpt>
      <trkpt lat="43.20074" lon="-1.0095">
        <ele>472</ele>
        <time>2022-08-27T19:21:43.000Z</time>
      </trkpt>
      <trkpt lat="43.20061" lon="-1.00909">
        <ele>473</ele>
        <time>2022-08-27T19:21:49.000Z</time>
      </trkpt>
      <trkpt lat="43.20032" lon="-1.00864">
        <ele>475</ele>
        <time>2022-08-27T19:21:57.000Z</time>
      </trkpt>
      <trkpt lat="43.20016" lon="-1.00844">
        <ele>476</ele>
        <time>2022-08-27T19:22:01.000Z</time>
      </trkpt>
      <trkpt lat="43.19992" lon="-1.00787">
        <ele>479</ele>
        <time>2022-08-27T19:22:09.000Z</time>
      </trkpt>
      <trkpt lat="43.19983" lon="-1.00729">
        <ele>481</ele>
        <time>2022-08-27T19:22:17.000Z</time>
      </trkpt>
      <trkpt lat="43.19976" lon="-1.00657">
        <ele>485</ele>
        <time>2022-08-27T19:22:26.000Z</time>
      </trkpt>
      <trkpt lat="43.19976" lon="-1.00552">
        <ele>486</ele>
        <time>2022-08-27T19:22:40.000Z</time>
      </trkpt>
      <trkpt lat="43.19955" lon="-1.00415">
        <ele>496</ele>
        <time>2022-08-27T19:22:58.000Z</time>
      </trkpt>
      <trkpt lat="43.19952" lon="-1.00381">
        <ele>497</ele>
        <time>2022-08-27T19:23:02.000Z</time>
      </trkpt>
      <trkpt lat="43.19957" lon="-1.00332">
        <ele>497</ele>
        <time>2022-08-27T19:23:09.000Z</time>
      </trkpt>
      <trkpt lat="43.19981" lon="-1.00264">
        <ele>496</ele>
        <time>2022-08-27T19:23:19.000Z</time>
      </trkpt>
      <trkpt lat="43.19989" lon="-1.00228">
        <ele>497</ele>
        <time>2022-08-27T19:23:24.000Z</time>
      </trkpt>
      <trkpt lat="43.1998" lon="-1.00107">
        <ele>505</ele>
        <time>2022-08-27T19:23:39.000Z</time>
      </trkpt>
      <trkpt lat="43.19984" lon="-1.00089">
        <ele>505</ele>
        <time>2022-08-27T19:23:42.000Z</time>
      </trkpt>
      <trkpt lat="43.19992" lon="-1.00069">
        <ele>506</ele>
        <time>2022-08-27T19:23:45.000Z</time>
      </trkpt>
      <trkpt lat="43.20003" lon="-1.00052">
        <ele>506</ele>
        <time>2022-08-27T19:23:48.000Z</time>
      </trkpt>
      <trkpt lat="43.20018" lon="-1.00041">
        <ele>507</ele>
        <time>2022-08-27T19:23:51.000Z</time>
      </trkpt>
      <trkpt lat="43.20037" lon="-1.00036">
        <ele>506</ele>
        <time>2022-08-27T19:23:54.000Z</time>
      </trkpt>
      <trkpt lat="43.20218" lon="-1.00059">
        <ele>493</ele>
        <time>2022-08-27T19:24:27.000Z</time>
      </trkpt>
      <trkpt lat="43.20245" lon="-1.00047">
        <ele>493</ele>
        <time>2022-08-27T19:24:32.000Z</time>
      </trkpt>
      <trkpt lat="43.20275" lon="-1.00015">
        <ele>491</ele>
        <time>2022-08-27T19:24:38.000Z</time>
      </trkpt>
      <trkpt lat="43.20345" lon="-0.99877">
        <ele>488</ele>
        <time>2022-08-27T19:25:00.000Z</time>
      </trkpt>
      <trkpt lat="43.20426" lon="-0.99824">
        <ele>483</ele>
        <time>2022-08-27T19:25:16.000Z</time>
      </trkpt>
      <trkpt lat="43.20483" lon="-0.99727">
        <ele>484</ele>
        <time>2022-08-27T19:25:32.000Z</time>
      </trkpt>
      <trkpt lat="43.20565" lon="-0.99693">
        <ele>470</ele>
        <time>2022-08-27T19:25:48.000Z</time>
      </trkpt>
      <trkpt lat="43.20601" lon="-0.99676">
        <ele>463</ele>
        <time>2022-08-27T19:25:55.000Z</time>
      </trkpt>
      <trkpt lat="43.20614" lon="-0.99661">
        <ele>462</ele>
        <time>2022-08-27T19:25:58.000Z</time>
      </trkpt>
      <trkpt lat="43.20621" lon="-0.99648">
        <ele>461</ele>
        <time>2022-08-27T19:26:00.000Z</time>
      </trkpt>
      <trkpt lat="43.20636" lon="-0.99603">
        <ele>463</ele>
        <time>2022-08-27T19:26:06.000Z</time>
      </trkpt>
      <trkpt lat="43.20655" lon="-0.99505">
        <ele>463</ele>
        <time>2022-08-27T19:26:19.000Z</time>
      </trkpt>
      <trkpt lat="43.20703" lon="-0.99419">
        <ele>455</ele>
        <time>2022-08-27T19:26:33.000Z</time>
      </trkpt>
      <trkpt lat="43.20711" lon="-0.99395">
        <ele>452</ele>
        <time>2022-08-27T19:26:37.000Z</time>
      </trkpt>
      <trkpt lat="43.20716" lon="-0.99347">
        <ele>448</ele>
        <time>2022-08-27T19:26:43.000Z</time>
      </trkpt>
      <trkpt lat="43.20702" lon="-0.99264">
        <ele>447</ele>
        <time>2022-08-27T19:26:54.000Z</time>
      </trkpt>
      <trkpt lat="43.20698" lon="-0.99232">
        <ele>445</ele>
        <time>2022-08-27T19:26:58.000Z</time>
      </trkpt>
      <trkpt lat="43.20701" lon="-0.99184">
        <ele>442</ele>
        <time>2022-08-27T19:27:05.000Z</time>
      </trkpt>
      <trkpt lat="43.20704" lon="-0.99171">
        <ele>440</ele>
        <time>2022-08-27T19:27:06.000Z</time>
      </trkpt>
      <trkpt lat="43.20779" lon="-0.99018">
        <ele>436</ele>
        <time>2022-08-27T19:27:30.000Z</time>
      </trkpt>
      <trkpt lat="43.20787" lon="-0.98979">
        <ele>436</ele>
        <time>2022-08-27T19:27:36.000Z</time>
      </trkpt>
      <trkpt lat="43.20762" lon="-0.98622">
        <ele>422</ele>
        <time>2022-08-27T19:28:22.000Z</time>
      </trkpt>
      <trkpt lat="43.20772" lon="-0.98569">
        <ele>420</ele>
        <time>2022-08-27T19:28:29.000Z</time>
      </trkpt>
      <trkpt lat="43.20787" lon="-0.9853">
        <ele>420</ele>
        <time>2022-08-27T19:28:35.000Z</time>
      </trkpt>
      <trkpt lat="43.20819" lon="-0.98475">
        <ele>421</ele>
        <time>2022-08-27T19:28:44.000Z</time>
      </trkpt>
      <trkpt lat="43.20829" lon="-0.98465">
        <ele>422</ele>
        <time>2022-08-27T19:28:46.000Z</time>
      </trkpt>
      <trkpt lat="43.20842" lon="-0.98458">
        <ele>422</ele>
        <time>2022-08-27T19:28:49.000Z</time>
      </trkpt>
      <trkpt lat="43.20896" lon="-0.98442">
        <ele>425</ele>
        <time>2022-08-27T19:28:59.000Z</time>
      </trkpt>
      <trkpt lat="43.20902" lon="-0.98433">
        <ele>424</ele>
        <time>2022-08-27T19:29:00.000Z</time>
      </trkpt>
      <trkpt lat="43.20911" lon="-0.98335">
        <ele>413</ele>
        <time>2022-08-27T19:29:13.000Z</time>
      </trkpt>
      <trkpt lat="43.20916" lon="-0.98319">
        <ele>411</ele>
        <time>2022-08-27T19:29:16.000Z</time>
      </trkpt>
      <trkpt lat="43.20952" lon="-0.98281">
        <ele>410</ele>
        <time>2022-08-27T19:29:24.000Z</time>
      </trkpt>
      <trkpt lat="43.20962" lon="-0.98269">
        <ele>410</ele>
        <time>2022-08-27T19:29:26.000Z</time>
      </trkpt>
      <trkpt lat="43.20969" lon="-0.98249">
        <ele>408</ele>
        <time>2022-08-27T19:29:29.000Z</time>
      </trkpt>
      <trkpt lat="43.2097" lon="-0.98234">
        <ele>407</ele>
        <time>2022-08-27T19:29:31.000Z</time>
      </trkpt>
      <trkpt lat="43.20952" lon="-0.98144">
        <ele>397</ele>
        <time>2022-08-27T19:29:43.000Z</time>
      </trkpt>
      <trkpt lat="43.20955" lon="-0.98061">
        <ele>395</ele>
        <time>2022-08-27T19:29:54.000Z</time>
      </trkpt>
      <trkpt lat="43.2095" lon="-0.98028">
        <ele>394</ele>
        <time>2022-08-27T19:29:58.000Z</time>
      </trkpt>
      <trkpt lat="43.20898" lon="-0.97893">
        <ele>383</ele>
        <time>2022-08-27T19:30:18.000Z</time>
      </trkpt>
      <trkpt lat="43.20846" lon="-0.97802">
        <ele>375</ele>
        <time>2022-08-27T19:30:33.000Z</time>
      </trkpt>
      <trkpt lat="43.20832" lon="-0.9777">
        <ele>373</ele>
        <time>2022-08-27T19:30:38.000Z</time>
      </trkpt>
      <trkpt lat="43.20819" lon="-0.97721">
        <ele>370</ele>
        <time>2022-08-27T19:30:45.000Z</time>
      </trkpt>
      <trkpt lat="43.20815" lon="-0.97684">
        <ele>368</ele>
        <time>2022-08-27T19:30:49.000Z</time>
      </trkpt>
      <trkpt lat="43.20817" lon="-0.97635">
        <ele>363</ele>
        <time>2022-08-27T19:30:56.000Z</time>
      </trkpt>
      <trkpt lat="43.20828" lon="-0.97606">
        <ele>361</ele>
        <time>2022-08-27T19:31:00.000Z</time>
      </trkpt>
      <trkpt lat="43.20911" lon="-0.97528">
        <ele>366</ele>
        <time>2022-08-27T19:31:18.000Z</time>
      </trkpt>
      <trkpt lat="43.20919" lon="-0.97517">
        <ele>366</ele>
        <time>2022-08-27T19:31:20.000Z</time>
      </trkpt>
      <trkpt lat="43.20919" lon="-0.97475">
        <ele>364</ele>
        <time>2022-08-27T19:31:26.000Z</time>
      </trkpt>
      <trkpt lat="43.2091" lon="-0.9746">
        <ele>363</ele>
        <time>2022-08-27T19:31:28.000Z</time>
      </trkpt>
      <trkpt lat="43.20825" lon="-0.97403">
        <ele>345</ele>
        <time>2022-08-27T19:31:45.000Z</time>
      </trkpt>
      <trkpt lat="43.208" lon="-0.97395">
        <ele>342</ele>
        <time>2022-08-27T19:31:50.000Z</time>
      </trkpt>
      <trkpt lat="43.20762" lon="-0.97389">
        <ele>337</ele>
        <time>2022-08-27T19:31:56.000Z</time>
      </trkpt>
      <trkpt lat="43.20659" lon="-0.97395">
        <ele>325</ele>
        <time>2022-08-27T19:32:15.000Z</time>
      </trkpt>
      <trkpt lat="43.2065" lon="-0.97392">
        <ele>324</ele>
        <time>2022-08-27T19:32:16.000Z</time>
      </trkpt>
      <trkpt lat="43.20583" lon="-0.97342">
        <ele>321</ele>
        <time>2022-08-27T19:32:30.000Z</time>
      </trkpt>
      <trkpt lat="43.20436" lon="-0.97268">
        <ele>307</ele>
        <time>2022-08-27T19:32:58.000Z</time>
      </trkpt>
      <trkpt lat="43.20422" lon="-0.97257">
        <ele>306</ele>
        <time>2022-08-27T19:33:01.000Z</time>
      </trkpt>
      <trkpt lat="43.20256" lon="-0.97059">
        <ele>288</ele>
        <time>2022-08-27T19:33:40.000Z</time>
      </trkpt>
      <trkpt lat="43.20234" lon="-0.97029">
        <ele>285</ele>
        <time>2022-08-27T19:33:45.000Z</time>
      </trkpt>
      <trkpt lat="43.20169" lon="-0.96817">
        <ele>272</ele>
        <time>2022-08-27T19:34:15.000Z</time>
      </trkpt>
      <trkpt lat="43.20158" lon="-0.96786">
        <ele>270</ele>
        <time>2022-08-27T19:34:20.000Z</time>
      </trkpt>
      <trkpt lat="43.20087" lon="-0.96659">
        <ele>262</ele>
        <time>2022-08-27T19:34:41.000Z</time>
      </trkpt>
      <trkpt lat="43.20061" lon="-0.96636">
        <ele>258</ele>
        <time>2022-08-27T19:34:46.000Z</time>
      </trkpt>
      <trkpt lat="43.20044" lon="-0.96628">
        <ele>257</ele>
        <time>2022-08-27T19:34:49.000Z</time>
      </trkpt>
      <trkpt lat="43.20002" lon="-0.96616">
        <ele>255</ele>
        <time>2022-08-27T19:34:57.000Z</time>
      </trkpt>
      <trkpt lat="43.19928" lon="-0.96607">
        <ele>250</ele>
        <time>2022-08-27T19:35:10.000Z</time>
      </trkpt>
      <trkpt lat="43.19876" lon="-0.96602">
        <ele>246</ele>
        <time>2022-08-27T19:35:19.000Z</time>
      </trkpt>
      <trkpt lat="43.19844" lon="-0.96602">
        <ele>244</ele>
        <time>2022-08-27T19:35:25.000Z</time>
      </trkpt>
      <trkpt lat="43.19776" lon="-0.96612">
        <ele>238</ele>
        <time>2022-08-27T19:35:37.000Z</time>
      </trkpt>
      <trkpt lat="43.19686" lon="-0.96606">
        <ele>231</ele>
        <time>2022-08-27T19:35:53.000Z</time>
      </trkpt>
      <trkpt lat="43.19577" lon="-0.96588">
        <ele>223</ele>
        <time>2022-08-27T19:36:13.000Z</time>
      </trkpt>
      <trkpt lat="43.19489" lon="-0.96523">
        <ele>215</ele>
        <time>2022-08-27T19:36:31.000Z</time>
      </trkpt>
      <trkpt lat="43.19479" lon="-0.96504">
        <ele>214</ele>
        <time>2022-08-27T19:36:34.000Z</time>
      </trkpt>
      <trkpt lat="43.19462" lon="-0.96442">
        <ele>211</ele>
        <time>2022-08-27T19:36:42.000Z</time>
      </trkpt>
      <trkpt lat="43.19384" lon="-0.95883">
        <ele>192</ele>
        <time>2022-08-27T19:37:56.000Z</time>
      </trkpt>
      <trkpt lat="43.19345" lon="-0.9574">
        <ele>196</ele>
        <time>2022-08-27T19:38:16.000Z</time>
      </trkpt>
      <trkpt lat="43.19338" lon="-0.95696">
        <ele>198</ele>
        <time>2022-08-27T19:38:22.000Z</time>
      </trkpt>
      <trkpt lat="43.19271" lon="-0.95214">
        <ele>214</ele>
        <time>2022-08-27T19:39:26.000Z</time>
      </trkpt>
      <trkpt lat="43.19268" lon="-0.95062">
        <ele>203</ele>
        <time>2022-08-27T19:39:45.000Z</time>
      </trkpt>
      <trkpt lat="43.19266" lon="-0.95051">
        <ele>202</ele>
        <time>2022-08-27T19:39:47.000Z</time>
      </trkpt>
      <trkpt lat="43.19258" lon="-0.95031">
        <ele>201</ele>
        <time>2022-08-27T19:39:50.000Z</time>
      </trkpt>
      <trkpt lat="43.19186" lon="-0.94905">
        <ele>192</ele>
        <time>2022-08-27T19:40:10.000Z</time>
      </trkpt>
      <trkpt lat="43.19119" lon="-0.94726">
        <ele>186</ele>
        <time>2022-08-27T19:40:37.000Z</time>
      </trkpt>
      <trkpt lat="43.19069" lon="-0.94582">
        <ele>194</ele>
        <time>2022-08-27T19:40:57.000Z</time>
      </trkpt>
      <trkpt lat="43.18995" lon="-0.94312">
        <ele>185</ele>
        <time>2022-08-27T19:41:35.000Z</time>
      </trkpt>
      <trkpt lat="43.18988" lon="-0.943">
        <ele>184</ele>
        <time>2022-08-27T19:41:37.000Z</time>
      </trkpt>
      <trkpt lat="43.18979" lon="-0.942">
        <ele>179</ele>
        <time>2022-08-27T19:41:50.000Z</time>
      </trkpt>
      <trkpt lat="43.18983" lon="-0.94158">
        <ele>177</ele>
        <time>2022-08-27T19:41:55.000Z</time>
      </trkpt>
      <trkpt lat="43.19035" lon="-0.94046">
        <ele>174</ele>
        <time>2022-08-27T19:42:13.000Z</time>
      </trkpt>
      <trkpt lat="43.19189" lon="-0.93707">
        <ele>176</ele>
        <time>2022-08-27T19:43:05.000Z</time>
      </trkpt>
      <trkpt lat="43.19252" lon="-0.93274">
        <ele>180</ele>
        <time>2022-08-27T19:44:02.000Z</time>
      </trkpt>
      <trkpt lat="43.19263" lon="-0.93227">
        <ele>180</ele>
        <time>2022-08-27T19:44:08.000Z</time>
      </trkpt>
      <trkpt lat="43.19304" lon="-0.93161">
        <ele>179</ele>
        <time>2022-08-27T19:44:20.000Z</time>
      </trkpt>
      <trkpt lat="43.19321" lon="-0.93148">
        <ele>178</ele>
        <time>2022-08-27T19:44:23.000Z</time>
      </trkpt>
      <trkpt lat="43.19377" lon="-0.93144">
        <ele>175</ele>
        <time>2022-08-27T19:44:33.000Z</time>
      </trkpt>
      <trkpt lat="43.19392" lon="-0.9314">
        <ele>173</ele>
        <time>2022-08-27T19:44:36.000Z</time>
      </trkpt>
      <trkpt lat="43.19416" lon="-0.9312">
        <ele>171</ele>
        <time>2022-08-27T19:44:41.000Z</time>
      </trkpt>
      <trkpt lat="43.19427" lon="-0.93093">
        <ele>170</ele>
        <time>2022-08-27T19:44:45.000Z</time>
      </trkpt>
      <trkpt lat="43.19442" lon="-0.92894">
        <ele>171</ele>
        <time>2022-08-27T19:45:11.000Z</time>
      </trkpt>
      <trkpt lat="43.19443" lon="-0.92779">
        <ele>171</ele>
        <time>2022-08-27T19:45:26.000Z</time>
      </trkpt>
      <trkpt lat="43.19402" lon="-0.92592">
        <ele>169</ele>
        <time>2022-08-27T19:45:51.000Z</time>
      </trkpt>
      <trkpt lat="43.19392" lon="-0.92534">
        <ele>168</ele>
        <time>2022-08-27T19:45:59.000Z</time>
      </trkpt>
      <trkpt lat="43.19395" lon="-0.92271">
        <ele>163</ele>
        <time>2022-08-27T19:46:33.000Z</time>
      </trkpt>
      <trkpt lat="43.19409" lon="-0.92209">
        <ele>163</ele>
        <time>2022-08-27T19:46:41.000Z</time>
      </trkpt>
      <trkpt lat="43.19419" lon="-0.9219">
        <ele>163</ele>
        <time>2022-08-27T19:46:45.000Z</time>
      </trkpt>
      <trkpt lat="43.19506" lon="-0.92091">
        <ele>164</ele>
        <time>2022-08-27T19:47:05.000Z</time>
      </trkpt>
      <trkpt lat="43.19774" lon="-0.91695">
        <ele>171</ele>
        <time>2022-08-27T19:48:15.000Z</time>
      </trkpt>
      <trkpt lat="43.19831" lon="-0.91618">
        <ele>170</ele>
        <time>2022-08-27T19:48:29.000Z</time>
      </trkpt>
      <trkpt lat="43.20088" lon="-0.91402">
        <ele>172</ele>
        <time>2022-08-27T19:49:23.000Z</time>
      </trkpt>
      <trkpt lat="43.20123" lon="-0.91367">
        <ele>166</ele>
        <time>2022-08-27T19:49:30.000Z</time>
      </trkpt>
      <trkpt lat="43.20211" lon="-0.91166">
        <ele>164</ele>
        <time>2022-08-27T19:50:01.000Z</time>
      </trkpt>
      <trkpt lat="43.20566" lon="-0.9066">
        <ele>158</ele>
        <time>2022-08-27T19:51:32.000Z</time>
      </trkpt>
      <trkpt lat="43.20592" lon="-0.90636">
        <ele>157</ele>
        <time>2022-08-27T19:51:37.000Z</time>
      </trkpt>
      <trkpt lat="43.20618" lon="-0.90624">
        <ele>158</ele>
        <time>2022-08-27T19:51:42.000Z</time>
      </trkpt>
      <trkpt lat="43.20824" lon="-0.90587">
        <ele>156</ele>
        <time>2022-08-27T19:52:19.000Z</time>
      </trkpt>
      <trkpt lat="43.20861" lon="-0.90579">
        <ele>158</ele>
        <time>2022-08-27T19:52:26.000Z</time>
      </trkpt>
      <trkpt lat="43.20915" lon="-0.90502">
        <ele>158</ele>
        <time>2022-08-27T19:52:40.000Z</time>
      </trkpt>
      <trkpt lat="43.21243" lon="-0.90195">
        <ele>156</ele>
        <time>2022-08-27T19:53:51.000Z</time>
      </trkpt>
      <trkpt lat="43.21319" lon="-0.9008">
        <ele>152</ele>
        <time>2022-08-27T19:54:11.000Z</time>
      </trkpt>
      <trkpt lat="43.21337" lon="-0.90048">
        <ele>153</ele>
        <time>2022-08-27T19:54:16.000Z</time>
      </trkpt>
      <trkpt lat="43.21479" lon="-0.89691">
        <ele>151</ele>
        <time>2022-08-27T19:55:09.000Z</time>
      </trkpt>
      <trkpt lat="43.21494" lon="-0.89659">
        <ele>149</ele>
        <time>2022-08-27T19:55:14.000Z</time>
      </trkpt>
      <trkpt lat="43.21675" lon="-0.8947">
        <ele>147</ele>
        <time>2022-08-27T19:55:54.000Z</time>
      </trkpt>
      <trkpt lat="43.21703" lon="-0.89426">
        <ele>144</ele>
        <time>2022-08-27T19:56:02.000Z</time>
      </trkpt>
      <trkpt lat="43.21703" lon="-0.89415">
        <ele>143</ele>
        <time>2022-08-27T19:56:03.000Z</time>
      </trkpt>
      <trkpt lat="43.21665" lon="-0.89377">
        <ele>141</ele>
        <time>2022-08-27T19:56:12.000Z</time>
      </trkpt>
      <trkpt lat="43.2165" lon="-0.89376">
        <ele>141</ele>
        <time>2022-08-27T19:56:14.000Z</time>
      </trkpt>
      <trkpt lat="43.21579" lon="-0.89437">
        <ele>142</ele>
        <time>2022-08-27T19:56:29.000Z</time>
      </trkpt>
      <trkpt lat="43.21559" lon="-0.89453">
        <ele>143</ele>
        <time>2022-08-27T19:56:33.000Z</time>
      </trkpt>
      <trkpt lat="43.21535" lon="-0.8946">
        <ele>143</ele>
        <time>2022-08-27T19:56:38.000Z</time>
      </trkpt>
      <trkpt lat="43.21516" lon="-0.8946">
        <ele>143</ele>
        <time>2022-08-27T19:56:41.000Z</time>
      </trkpt>
      <trkpt lat="43.21483" lon="-0.89448">
        <ele>143</ele>
        <time>2022-08-27T19:56:47.000Z</time>
      </trkpt>
      <trkpt lat="43.2147" lon="-0.89437">
        <ele>143</ele>
        <time>2022-08-27T19:56:50.000Z</time>
      </trkpt>
      <trkpt lat="43.21439" lon="-0.89387">
        <ele>144</ele>
        <time>2022-08-27T19:56:59.000Z</time>
      </trkpt>
      <trkpt lat="43.21388" lon="-0.89255">
        <ele>145</ele>
        <time>2022-08-27T19:57:18.000Z</time>
      </trkpt>
      <trkpt lat="43.21133" lon="-0.89444">
        <ele>148</ele>
        <time>2022-08-27T19:58:10.000Z</time>
      </trkpt>
      <trkpt lat="43.20642" lon="-0.89829">
        <ele>152</ele>
        <time>2022-08-27T19:59:50.000Z</time>
      </trkpt>
      <trkpt lat="43.20382" lon="-0.90025">
        <ele>155</ele>
        <time>2022-08-27T20:00:43.000Z</time>
      </trkpt>
      <trkpt lat="43.20185" lon="-0.90187">
        <ele>156</ele>
        <time>2022-08-27T20:01:24.000Z</time>
      </trkpt>
      <trkpt lat="43.20149" lon="-0.9022">
        <ele>157</ele>
        <time>2022-08-27T20:01:32.000Z</time>
      </trkpt>
      <trkpt lat="43.19993" lon="-0.90251">
        <ele>160</ele>
        <time>2022-08-27T20:02:00.000Z</time>
      </trkpt>
      <trkpt lat="43.19972" lon="-0.90257">
        <ele>161</ele>
        <time>2022-08-27T20:02:04.000Z</time>
      </trkpt>
      <trkpt lat="43.19863" lon="-0.90313">
        <ele>158</ele>
        <time>2022-08-27T20:02:24.000Z</time>
      </trkpt>
      <trkpt lat="43.19852" lon="-0.90316">
        <ele>158</ele>
        <time>2022-08-27T20:02:26.000Z</time>
      </trkpt>
      <trkpt lat="43.19034" lon="-0.90344">
        <ele>164</ele>
        <time>2022-08-27T20:04:52.000Z</time>
      </trkpt>
      <trkpt lat="43.1903" lon="-0.90348">
        <ele>164</ele>
        <time>2022-08-27T20:04:53.000Z</time>
      </trkpt>
      <trkpt lat="43.18276" lon="-0.90296">
        <ele>166</ele>
        <time>2022-08-27T20:07:07.000Z</time>
      </trkpt>
      <trkpt lat="43.18076" lon="-0.90277">
        <ele>169</ele>
        <time>2022-08-27T20:07:43.000Z</time>
      </trkpt>
      <trkpt lat="43.18032" lon="-0.90253">
        <ele>170</ele>
        <time>2022-08-27T20:07:51.000Z</time>
      </trkpt>
      <trkpt lat="43.17998" lon="-0.90228">
        <ele>174</ele>
        <time>2022-08-27T20:07:58.000Z</time>
      </trkpt>
      <trkpt lat="43.1794" lon="-0.90168">
        <ele>176</ele>
        <time>2022-08-27T20:08:11.000Z</time>
      </trkpt>
      <trkpt lat="43.17926" lon="-0.90161">
        <ele>175</ele>
        <time>2022-08-27T20:08:14.000Z</time>
      </trkpt>
      <trkpt lat="43.17796" lon="-0.90148">
        <ele>180</ele>
        <time>2022-08-27T20:08:37.000Z</time>
      </trkpt>
      <trkpt lat="43.17785" lon="-0.90142">
        <ele>181</ele>
        <time>2022-08-27T20:08:39.000Z</time>
      </trkpt>
      <trkpt lat="43.17747" lon="-0.90112">
        <ele>187</ele>
        <time>2022-08-27T20:08:47.000Z</time>
      </trkpt>
      <trkpt lat="43.17662" lon="-0.90031">
        <ele>184</ele>
        <time>2022-08-27T20:09:05.000Z</time>
      </trkpt>
      <trkpt lat="43.17621" lon="-0.90005">
        <ele>180</ele>
        <time>2022-08-27T20:09:13.000Z</time>
      </trkpt>
      <trkpt lat="43.17563" lon="-0.89977">
        <ele>175</ele>
        <time>2022-08-27T20:09:24.000Z</time>
      </trkpt>
      <trkpt lat="43.17428" lon="-0.89922">
        <ele>178</ele>
        <time>2022-08-27T20:09:49.000Z</time>
      </trkpt>
      <trkpt lat="43.17402" lon="-0.89907">
        <ele>182</ele>
        <time>2022-08-27T20:09:54.000Z</time>
      </trkpt>
      <trkpt lat="43.17343" lon="-0.89864">
        <ele>191</ele>
        <time>2022-08-27T20:10:06.000Z</time>
      </trkpt>
      <trkpt lat="43.17274" lon="-0.89802">
        <ele>196</ele>
        <time>2022-08-27T20:10:21.000Z</time>
      </trkpt>
      <trkpt lat="43.1724" lon="-0.89786">
        <ele>195</ele>
        <time>2022-08-27T20:10:27.000Z</time>
      </trkpt>
      <trkpt lat="43.17194" lon="-0.89778">
        <ele>189</ele>
        <time>2022-08-27T20:10:36.000Z</time>
      </trkpt>
      <trkpt lat="43.17181" lon="-0.89768">
        <ele>188</ele>
        <time>2022-08-27T20:10:38.000Z</time>
      </trkpt>
      <trkpt lat="43.17172" lon="-0.89754">
        <ele>189</ele>
        <time>2022-08-27T20:10:41.000Z</time>
      </trkpt>
      <trkpt lat="43.17139" lon="-0.8968">
        <ele>188</ele>
        <time>2022-08-27T20:10:52.000Z</time>
      </trkpt>
      <trkpt lat="43.17118" lon="-0.89658">
        <ele>185</ele>
        <time>2022-08-27T20:10:57.000Z</time>
      </trkpt>
      <trkpt lat="43.17075" lon="-0.89635">
        <ele>179</ele>
        <time>2022-08-27T20:11:05.000Z</time>
      </trkpt>
      <trkpt lat="43.16981" lon="-0.8962">
        <ele>177</ele>
        <time>2022-08-27T20:11:22.000Z</time>
      </trkpt>
      <trkpt lat="43.16957" lon="-0.89605">
        <ele>177</ele>
        <time>2022-08-27T20:11:26.000Z</time>
      </trkpt>
      <trkpt lat="43.16893" lon="-0.89556">
        <ele>180</ele>
        <time>2022-08-27T20:11:39.000Z</time>
      </trkpt>
      <trkpt lat="43.16678" lon="-0.89343">
        <ele>201</ele>
        <time>2022-08-27T20:12:27.000Z</time>
      </trkpt>
      <trkpt lat="43.16629" lon="-0.89317">
        <ele>198</ele>
        <time>2022-08-27T20:12:36.000Z</time>
      </trkpt>
      <trkpt lat="43.16432" lon="-0.89235">
        <ele>189</ele>
        <time>2022-08-27T20:13:13.000Z</time>
      </trkpt>
      <trkpt lat="43.16253" lon="-0.89241">
        <ele>194</ele>
        <time>2022-08-27T20:13:44.000Z</time>
      </trkpt>
      <trkpt lat="43.16212" lon="-0.8925">
        <ele>193</ele>
        <time>2022-08-27T20:13:52.000Z</time>
      </trkpt>
      <trkpt lat="43.16133" lon="-0.89235">
        <ele>196</ele>
        <time>2022-08-27T20:14:06.000Z</time>
      </trkpt>
      <trkpt lat="43.1608" lon="-0.89226">
        <ele>200</ele>
        <time>2022-08-27T20:14:16.000Z</time>
      </trkpt>
      <trkpt lat="43.16025" lon="-0.89232">
        <ele>199</ele>
        <time>2022-08-27T20:14:25.000Z</time>
      </trkpt>
      <trkpt lat="43.15972" lon="-0.89254">
        <ele>193</ele>
        <time>2022-08-27T20:14:35.000Z</time>
      </trkpt>
      <trkpt lat="43.15881" lon="-0.89247">
        <ele>192</ele>
        <time>2022-08-27T20:14:52.000Z</time>
      </trkpt>
      <trkpt lat="43.15794" lon="-0.89215">
        <ele>193</ele>
        <time>2022-08-27T20:15:08.000Z</time>
      </trkpt>
      <trkpt lat="43.15589" lon="-0.89145">
        <ele>192</ele>
        <time>2022-08-27T20:15:45.000Z</time>
      </trkpt>
      <trkpt lat="43.15397" lon="-0.89101">
        <ele>194</ele>
        <time>2022-08-27T20:16:20.000Z</time>
      </trkpt>
      <trkpt lat="43.15388" lon="-0.89106">
        <ele>194</ele>
        <time>2022-08-27T20:16:22.000Z</time>
      </trkpt>
      <trkpt lat="43.15331" lon="-0.89094">
        <ele>196</ele>
        <time>2022-08-27T20:16:32.000Z</time>
      </trkpt>
      <trkpt lat="43.15307" lon="-0.89085">
        <ele>196</ele>
        <time>2022-08-27T20:16:36.000Z</time>
      </trkpt>
      <trkpt lat="43.15258" lon="-0.89074">
        <ele>195</ele>
        <time>2022-08-27T20:16:45.000Z</time>
      </trkpt>
      <trkpt lat="43.15228" lon="-0.89054">
        <ele>195</ele>
        <time>2022-08-27T20:16:51.000Z</time>
      </trkpt>
      <trkpt lat="43.15204" lon="-0.89046">
        <ele>195</ele>
        <time>2022-08-27T20:16:56.000Z</time>
      </trkpt>
      <trkpt lat="43.15048" lon="-0.89021">
        <ele>195</ele>
        <time>2022-08-27T20:17:24.000Z</time>
      </trkpt>
      <trkpt lat="43.14884" lon="-0.88978">
        <ele>197</ele>
        <time>2022-08-27T20:17:53.000Z</time>
      </trkpt>
      <trkpt lat="43.148" lon="-0.88957">
        <ele>197</ele>
        <time>2022-08-27T20:18:08.000Z</time>
      </trkpt>
      <trkpt lat="43.1466" lon="-0.88965">
        <ele>203</ele>
        <time>2022-08-27T20:18:33.000Z</time>
      </trkpt>
      <trkpt lat="43.14631" lon="-0.88951">
        <ele>203</ele>
        <time>2022-08-27T20:18:39.000Z</time>
      </trkpt>
      <trkpt lat="43.14603" lon="-0.88923">
        <ele>204</ele>
        <time>2022-08-27T20:18:45.000Z</time>
      </trkpt>
      <trkpt lat="43.14584" lon="-0.88888">
        <ele>207</ele>
        <time>2022-08-27T20:18:51.000Z</time>
      </trkpt>
      <trkpt lat="43.14485" lon="-0.88589">
        <ele>205</ele>
        <time>2022-08-27T20:19:33.000Z</time>
      </trkpt>
      <trkpt lat="43.14166" lon="-0.87891">
        <ele>207</ele>
        <time>2022-08-27T20:21:20.000Z</time>
      </trkpt>
      <trkpt lat="43.1414" lon="-0.87844">
        <ele>206</ele>
        <time>2022-08-27T20:21:28.000Z</time>
      </trkpt>
      <trkpt lat="43.14102" lon="-0.87801">
        <ele>207</ele>
        <time>2022-08-27T20:21:37.000Z</time>
      </trkpt>
      <trkpt lat="43.14046" lon="-0.87763">
        <ele>206</ele>
        <time>2022-08-27T20:21:48.000Z</time>
      </trkpt>
      <trkpt lat="43.1389" lon="-0.87677">
        <ele>208</ele>
        <time>2022-08-27T20:22:18.000Z</time>
      </trkpt>
      <trkpt lat="43.13671" lon="-0.87564">
        <ele>210</ele>
        <time>2022-08-27T20:22:59.000Z</time>
      </trkpt>
      <trkpt lat="43.13618" lon="-0.87551">
        <ele>211</ele>
        <time>2022-08-27T20:23:09.000Z</time>
      </trkpt>
      <trkpt lat="43.13518" lon="-0.87538">
        <ele>212</ele>
        <time>2022-08-27T20:23:27.000Z</time>
      </trkpt>
      <trkpt lat="43.13496" lon="-0.87551">
        <ele>212</ele>
        <time>2022-08-27T20:23:31.000Z</time>
      </trkpt>
      <trkpt lat="43.13425" lon="-0.87639">
        <ele>212</ele>
        <time>2022-08-27T20:23:48.000Z</time>
      </trkpt>
      <trkpt lat="43.13409" lon="-0.87649">
        <ele>212</ele>
        <time>2022-08-27T20:23:51.000Z</time>
      </trkpt>
      <trkpt lat="43.1325" lon="-0.87679">
        <ele>215</ele>
        <time>2022-08-27T20:24:20.000Z</time>
      </trkpt>
      <trkpt lat="43.1314" lon="-0.87686">
        <ele>219</ele>
        <time>2022-08-27T20:24:39.000Z</time>
      </trkpt>
      <trkpt lat="43.13121" lon="-0.87679">
        <ele>219</ele>
        <time>2022-08-27T20:24:43.000Z</time>
      </trkpt>
      <trkpt lat="43.13069" lon="-0.8764">
        <ele>218</ele>
        <time>2022-08-27T20:24:54.000Z</time>
      </trkpt>
      <trkpt lat="43.12419" lon="-0.87556">
        <ele>222</ele>
        <time>2022-08-27T20:26:50.000Z</time>
      </trkpt>
      <trkpt lat="43.12395" lon="-0.87546">
        <ele>221</ele>
        <time>2022-08-27T20:26:54.000Z</time>
      </trkpt>
      <trkpt lat="43.12365" lon="-0.87523">
        <ele>220</ele>
        <time>2022-08-27T20:27:01.000Z</time>
      </trkpt>
      <trkpt lat="43.12345" lon="-0.87492">
        <ele>220</ele>
        <time>2022-08-27T20:27:06.000Z</time>
      </trkpt>
      <trkpt lat="43.12325" lon="-0.87443">
        <ele>223</ele>
        <time>2022-08-27T20:27:13.000Z</time>
      </trkpt>
      <trkpt lat="43.12217" lon="-0.87032">
        <ele>230</ele>
        <time>2022-08-27T20:28:10.000Z</time>
      </trkpt>
      <trkpt lat="43.12204" lon="-0.86997">
        <ele>228</ele>
        <time>2022-08-27T20:28:15.000Z</time>
      </trkpt>
      <trkpt lat="43.12093" lon="-0.86772">
        <ele>220</ele>
        <time>2022-08-27T20:28:50.000Z</time>
      </trkpt>
      <trkpt lat="43.12067" lon="-0.8674">
        <ele>216</ele>
        <time>2022-08-27T20:28:57.000Z</time>
      </trkpt>
      <trkpt lat="43.11999" lon="-0.86665">
        <ele>218</ele>
        <time>2022-08-27T20:29:12.000Z</time>
      </trkpt>
      <trkpt lat="43.11971" lon="-0.86618">
        <ele>223</ele>
        <time>2022-08-27T20:29:20.000Z</time>
      </trkpt>
      <trkpt lat="43.11938" lon="-0.86571">
        <ele>227</ele>
        <time>2022-08-27T20:29:28.000Z</time>
      </trkpt>
      <trkpt lat="43.11905" lon="-0.86539">
        <ele>228</ele>
        <time>2022-08-27T20:29:36.000Z</time>
      </trkpt>
      <trkpt lat="43.11859" lon="-0.86503">
        <ele>226</ele>
        <time>2022-08-27T20:29:45.000Z</time>
      </trkpt>
      <trkpt lat="43.1169" lon="-0.86384">
        <ele>221</ele>
        <time>2022-08-27T20:30:19.000Z</time>
      </trkpt>
      <trkpt lat="43.11673" lon="-0.86375">
        <ele>222</ele>
        <time>2022-08-27T20:30:22.000Z</time>
      </trkpt>
      <trkpt lat="43.11663" lon="-0.86362">
        <ele>223</ele>
        <time>2022-08-27T20:30:25.000Z</time>
      </trkpt>
      <trkpt lat="43.11654" lon="-0.86331">
        <ele>225</ele>
        <time>2022-08-27T20:30:29.000Z</time>
      </trkpt>
      <trkpt lat="43.11606" lon="-0.863">
        <ele>227</ele>
        <time>2022-08-27T20:30:38.000Z</time>
      </trkpt>
      <trkpt lat="43.11577" lon="-0.86273">
        <ele>229</ele>
        <time>2022-08-27T20:30:45.000Z</time>
      </trkpt>
      <trkpt lat="43.11543" lon="-0.86229">
        <ele>229</ele>
        <time>2022-08-27T20:30:53.000Z</time>
      </trkpt>
      <trkpt lat="43.11501" lon="-0.86196">
        <ele>230</ele>
        <time>2022-08-27T20:31:01.000Z</time>
      </trkpt>
      <trkpt lat="43.11238" lon="-0.8603">
        <ele>243</ele>
        <time>2022-08-27T20:31:53.000Z</time>
      </trkpt>
      <trkpt lat="43.11214" lon="-0.86018">
        <ele>243</ele>
        <time>2022-08-27T20:31:58.000Z</time>
      </trkpt>
      <trkpt lat="43.11156" lon="-0.86005">
        <ele>237</ele>
        <time>2022-08-27T20:32:08.000Z</time>
      </trkpt>
      <trkpt lat="43.11043" lon="-0.86006">
        <ele>230</ele>
        <time>2022-08-27T20:32:28.000Z</time>
      </trkpt>
      <trkpt lat="43.11011" lon="-0.86002">
        <ele>230</ele>
        <time>2022-08-27T20:32:34.000Z</time>
      </trkpt>
      <trkpt lat="43.10954" lon="-0.85978">
        <ele>232</ele>
        <time>2022-08-27T20:32:44.000Z</time>
      </trkpt>
      <trkpt lat="43.10923" lon="-0.85958">
        <ele>232</ele>
        <time>2022-08-27T20:32:51.000Z</time>
      </trkpt>
      <trkpt lat="43.10847" lon="-0.85891">
        <ele>237</ele>
        <time>2022-08-27T20:33:07.000Z</time>
      </trkpt>
      <trkpt lat="43.10822" lon="-0.85865">
        <ele>238</ele>
        <time>2022-08-27T20:33:12.000Z</time>
      </trkpt>
      <trkpt lat="43.10741" lon="-0.85741">
        <ele>244</ele>
        <time>2022-08-27T20:33:34.000Z</time>
      </trkpt>
      <trkpt lat="43.10727" lon="-0.85728">
        <ele>246</ele>
        <time>2022-08-27T20:33:37.000Z</time>
      </trkpt>
      <trkpt lat="43.10628" lon="-0.85687">
        <ele>240</ele>
        <time>2022-08-27T20:33:56.000Z</time>
      </trkpt>
      <trkpt lat="43.10622" lon="-0.8568">
        <ele>240</ele>
        <time>2022-08-27T20:33:57.000Z</time>
      </trkpt>
      <trkpt lat="43.10561" lon="-0.85535">
        <ele>248</ele>
        <time>2022-08-27T20:34:19.000Z</time>
      </trkpt>
      <trkpt lat="43.1046" lon="-0.85367">
        <ele>249</ele>
        <time>2022-08-27T20:34:47.000Z</time>
      </trkpt>
      <trkpt lat="43.10423" lon="-0.85316">
        <ele>245</ele>
        <time>2022-08-27T20:34:56.000Z</time>
      </trkpt>
      <trkpt lat="43.10372" lon="-0.85257">
        <ele>245</ele>
        <time>2022-08-27T20:35:08.000Z</time>
      </trkpt>
      <trkpt lat="43.10227" lon="-0.851">
        <ele>245</ele>
        <time>2022-08-27T20:35:41.000Z</time>
      </trkpt>
      <trkpt lat="43.1021" lon="-0.85069">
        <ele>244</ele>
        <time>2022-08-27T20:35:46.000Z</time>
      </trkpt>
      <trkpt lat="43.10191" lon="-0.8501">
        <ele>243</ele>
        <time>2022-08-27T20:35:55.000Z</time>
      </trkpt>
      <trkpt lat="43.10175" lon="-0.84858">
        <ele>240</ele>
        <time>2022-08-27T20:36:15.000Z</time>
      </trkpt>
      <trkpt lat="43.10148" lon="-0.84649">
        <ele>243</ele>
        <time>2022-08-27T20:36:42.000Z</time>
      </trkpt>
      <trkpt lat="43.1014" lon="-0.84565">
        <ele>243</ele>
        <time>2022-08-27T20:36:53.000Z</time>
      </trkpt>
      <trkpt lat="43.10137" lon="-0.84495">
        <ele>245</ele>
        <time>2022-08-27T20:37:02.000Z</time>
      </trkpt>
      <trkpt lat="43.10142" lon="-0.84375">
        <ele>246</ele>
        <time>2022-08-27T20:37:18.000Z</time>
      </trkpt>
      <trkpt lat="43.1014" lon="-0.84283">
        <ele>244</ele>
        <time>2022-08-27T20:37:30.000Z</time>
      </trkpt>
      <trkpt lat="43.10121" lon="-0.84187">
        <ele>245</ele>
        <time>2022-08-27T20:37:43.000Z</time>
      </trkpt>
      <trkpt lat="43.1011" lon="-0.84111">
        <ele>247</ele>
        <time>2022-08-27T20:37:53.000Z</time>
      </trkpt>
      <trkpt lat="43.10134" lon="-0.83895">
        <ele>255</ele>
        <time>2022-08-27T20:38:22.000Z</time>
      </trkpt>
      <trkpt lat="43.10129" lon="-0.8381">
        <ele>249</ele>
        <time>2022-08-27T20:38:33.000Z</time>
      </trkpt>
      <trkpt lat="43.10084" lon="-0.83396">
        <ele>254</ele>
        <time>2022-08-27T20:39:27.000Z</time>
      </trkpt>
      <trkpt lat="43.10058" lon="-0.83197">
        <ele>253</ele>
        <time>2022-08-27T20:39:53.000Z</time>
      </trkpt>
      <trkpt lat="43.09992" lon="-0.82831">
        <ele>256</ele>
        <time>2022-08-27T20:40:42.000Z</time>
      </trkpt>
      <trkpt lat="43.0999" lon="-0.82809">
        <ele>258</ele>
        <time>2022-08-27T20:40:45.000Z</time>
      </trkpt>
      <trkpt lat="43.09992" lon="-0.82761">
        <ele>260</ele>
        <time>2022-08-27T20:40:51.000Z</time>
      </trkpt>
      <trkpt lat="43.10027" lon="-0.82609">
        <ele>265</ele>
        <time>2022-08-27T20:41:12.000Z</time>
      </trkpt>
      <trkpt lat="43.10025" lon="-0.82589">
        <ele>265</ele>
        <time>2022-08-27T20:41:15.000Z</time>
      </trkpt>
      <trkpt lat="43.09798" lon="-0.81953">
        <ele>268</ele>
        <time>2022-08-27T20:42:47.000Z</time>
      </trkpt>
      <trkpt lat="43.09795" lon="-0.81929">
        <ele>268</ele>
        <time>2022-08-27T20:42:50.000Z</time>
      </trkpt>
      <trkpt lat="43.09842" lon="-0.81722">
        <ele>262</ele>
        <time>2022-08-27T20:43:18.000Z</time>
      </trkpt>
      <trkpt lat="43.09869" lon="-0.81677">
        <ele>262</ele>
        <time>2022-08-27T20:43:26.000Z</time>
      </trkpt>
      <trkpt lat="43.09943" lon="-0.8156">
        <ele>274</ele>
        <time>2022-08-27T20:43:46.000Z</time>
      </trkpt>
      <trkpt lat="43.10029" lon="-0.81518">
        <ele>289</ele>
        <time>2022-08-27T20:44:02.000Z</time>
      </trkpt>
      <trkpt lat="43.10048" lon="-0.81506">
        <ele>291</ele>
        <time>2022-08-27T20:44:06.000Z</time>
      </trkpt>
      <trkpt lat="43.10099" lon="-0.81438">
        <ele>290</ele>
        <time>2022-08-27T20:44:19.000Z</time>
      </trkpt>
      <trkpt lat="43.10107" lon="-0.81413">
        <ele>289</ele>
        <time>2022-08-27T20:44:22.000Z</time>
      </trkpt>
      <trkpt lat="43.10143" lon="-0.81216">
        <ele>279</ele>
        <time>2022-08-27T20:44:49.000Z</time>
      </trkpt>
      <trkpt lat="43.10141" lon="-0.81168">
        <ele>279</ele>
        <time>2022-08-27T20:44:55.000Z</time>
      </trkpt>
      <trkpt lat="43.10125" lon="-0.81092">
        <ele>284</ele>
        <time>2022-08-27T20:45:05.000Z</time>
      </trkpt>
      <trkpt lat="43.10112" lon="-0.81054">
        <ele>289</ele>
        <time>2022-08-27T20:45:11.000Z</time>
      </trkpt>
      <trkpt lat="43.10055" lon="-0.80944">
        <ele>301</ele>
        <time>2022-08-27T20:45:28.000Z</time>
      </trkpt>
      <trkpt lat="43.10048" lon="-0.80904">
        <ele>304</ele>
        <time>2022-08-27T20:45:34.000Z</time>
      </trkpt>
      <trkpt lat="43.10048" lon="-0.80885">
        <ele>304</ele>
        <time>2022-08-27T20:45:36.000Z</time>
      </trkpt>
      <trkpt lat="43.10063" lon="-0.80829">
        <ele>308</ele>
        <time>2022-08-27T20:45:44.000Z</time>
      </trkpt>
      <trkpt lat="43.10074" lon="-0.80813">
        <ele>308</ele>
        <time>2022-08-27T20:45:47.000Z</time>
      </trkpt>
      <trkpt lat="43.1012" lon="-0.80774">
        <ele>314</ele>
        <time>2022-08-27T20:45:56.000Z</time>
      </trkpt>
      <trkpt lat="43.10232" lon="-0.80691">
        <ele>330</ele>
        <time>2022-08-27T20:46:19.000Z</time>
      </trkpt>
      <trkpt lat="43.10289" lon="-0.80609">
        <ele>336</ele>
        <time>2022-08-27T20:46:34.000Z</time>
      </trkpt>
      <trkpt lat="43.10314" lon="-0.80535">
        <ele>344</ele>
        <time>2022-08-27T20:46:44.000Z</time>
      </trkpt>
      <trkpt lat="43.10321" lon="-0.80491">
        <ele>347</ele>
        <time>2022-08-27T20:46:50.000Z</time>
      </trkpt>
      <trkpt lat="43.10319" lon="-0.80461">
        <ele>349</ele>
        <time>2022-08-27T20:46:54.000Z</time>
      </trkpt>
      <trkpt lat="43.10292" lon="-0.80397">
        <ele>346</ele>
        <time>2022-08-27T20:47:04.000Z</time>
      </trkpt>
      <trkpt lat="43.10286" lon="-0.80367">
        <ele>347</ele>
        <time>2022-08-27T20:47:08.000Z</time>
      </trkpt>
      <trkpt lat="43.10297" lon="-0.80291">
        <ele>357</ele>
        <time>2022-08-27T20:47:18.000Z</time>
      </trkpt>
      <trkpt lat="43.10298" lon="-0.80276">
        <ele>359</ele>
        <time>2022-08-27T20:47:20.000Z</time>
      </trkpt>
      <trkpt lat="43.10298" lon="-0.80242">
        <ele>363</ele>
        <time>2022-08-27T20:47:24.000Z</time>
      </trkpt>
      <trkpt lat="43.10289" lon="-0.80078">
        <ele>375</ele>
        <time>2022-08-27T20:47:46.000Z</time>
      </trkpt>
      <trkpt lat="43.10297" lon="-0.80036">
        <ele>374</ele>
        <time>2022-08-27T20:47:51.000Z</time>
      </trkpt>
      <trkpt lat="43.10302" lon="-0.80021">
        <ele>374</ele>
        <time>2022-08-27T20:47:54.000Z</time>
      </trkpt>
      <trkpt lat="43.10523" lon="-0.79475">
        <ele>357</ele>
        <time>2022-08-27T20:49:15.000Z</time>
      </trkpt>
      <trkpt lat="43.10577" lon="-0.79336">
        <ele>353</ele>
        <time>2022-08-27T20:49:35.000Z</time>
      </trkpt>
      <trkpt lat="43.10587" lon="-0.79319">
        <ele>353</ele>
        <time>2022-08-27T20:49:38.000Z</time>
      </trkpt>
      <trkpt lat="43.10696" lon="-0.79185">
        <ele>357</ele>
        <time>2022-08-27T20:50:04.000Z</time>
      </trkpt>
      <trkpt lat="43.10761" lon="-0.79064">
        <ele>347</ele>
        <time>2022-08-27T20:50:24.000Z</time>
      </trkpt>
      <trkpt lat="43.10782" lon="-0.79032">
        <ele>346</ele>
        <time>2022-08-27T20:50:29.000Z</time>
      </trkpt>
      <trkpt lat="43.10874" lon="-0.78943">
        <ele>339</ele>
        <time>2022-08-27T20:50:49.000Z</time>
      </trkpt>
      <trkpt lat="43.10936" lon="-0.78905">
        <ele>338</ele>
        <time>2022-08-27T20:51:01.000Z</time>
      </trkpt>
      <trkpt lat="43.1098" lon="-0.7886">
        <ele>342</ele>
        <time>2022-08-27T20:51:11.000Z</time>
      </trkpt>
      <trkpt lat="43.11016" lon="-0.78805">
        <ele>342</ele>
        <time>2022-08-27T20:51:21.000Z</time>
      </trkpt>
      <trkpt lat="43.11032" lon="-0.78772">
        <ele>341</ele>
        <time>2022-08-27T20:51:26.000Z</time>
      </trkpt>
      <trkpt lat="43.11074" lon="-0.78646">
        <ele>337</ele>
        <time>2022-08-27T20:51:44.000Z</time>
      </trkpt>
      <trkpt lat="43.11085" lon="-0.78541">
        <ele>329</ele>
        <time>2022-08-27T20:51:58.000Z</time>
      </trkpt>
      <trkpt lat="43.11091" lon="-0.78503">
        <ele>327</ele>
        <time>2022-08-27T20:52:03.000Z</time>
      </trkpt>
      <trkpt lat="43.11141" lon="-0.78418">
        <ele>324</ele>
        <time>2022-08-27T20:52:17.000Z</time>
      </trkpt>
      <trkpt lat="43.11147" lon="-0.784">
        <ele>324</ele>
        <time>2022-08-27T20:52:19.000Z</time>
      </trkpt>
      <trkpt lat="43.11156" lon="-0.78216">
        <ele>338</ele>
        <time>2022-08-27T20:52:43.000Z</time>
      </trkpt>
      <trkpt lat="43.11154" lon="-0.78167">
        <ele>338</ele>
        <time>2022-08-27T20:52:50.000Z</time>
      </trkpt>
      <trkpt lat="43.1111" lon="-0.78006">
        <ele>334</ele>
        <time>2022-08-27T20:53:12.000Z</time>
      </trkpt>
      <trkpt lat="43.11051" lon="-0.77838">
        <ele>331</ele>
        <time>2022-08-27T20:53:36.000Z</time>
      </trkpt>
      <trkpt lat="43.11039" lon="-0.77602">
        <ele>318</ele>
        <time>2022-08-27T20:54:07.000Z</time>
      </trkpt>
      <trkpt lat="43.11027" lon="-0.77092">
        <ele>319</ele>
        <time>2022-08-27T20:55:13.000Z</time>
      </trkpt>
      <trkpt lat="43.11037" lon="-0.77059">
        <ele>321</ele>
        <time>2022-08-27T20:55:18.000Z</time>
      </trkpt>
      <trkpt lat="43.11049" lon="-0.77047">
        <ele>321</ele>
        <time>2022-08-27T20:55:21.000Z</time>
      </trkpt>
      <trkpt lat="43.1111" lon="-0.7702">
        <ele>320</ele>
        <time>2022-08-27T20:55:32.000Z</time>
      </trkpt>
      <trkpt lat="43.11142" lon="-0.76994">
        <ele>320</ele>
        <time>2022-08-27T20:55:39.000Z</time>
      </trkpt>
      <trkpt lat="43.11155" lon="-0.76974">
        <ele>321</ele>
        <time>2022-08-27T20:55:42.000Z</time>
      </trkpt>
      <trkpt lat="43.11182" lon="-0.76906">
        <ele>322</ele>
        <time>2022-08-27T20:55:52.000Z</time>
      </trkpt>
      <trkpt lat="43.11214" lon="-0.76742">
        <ele>322</ele>
        <time>2022-08-27T20:56:14.000Z</time>
      </trkpt>
      <trkpt lat="43.11301" lon="-0.76407">
        <ele>323</ele>
        <time>2022-08-27T20:57:01.000Z</time>
      </trkpt>
      <trkpt lat="43.11301" lon="-0.76397">
        <ele>323</ele>
        <time>2022-08-27T20:57:02.000Z</time>
      </trkpt>
      <trkpt lat="43.1131" lon="-0.7639">
        <ele>322</ele>
        <time>2022-08-27T20:57:04.000Z</time>
      </trkpt>
      <trkpt lat="43.11328" lon="-0.7625">
        <ele>324</ele>
        <time>2022-08-27T20:57:23.000Z</time>
      </trkpt>
      <trkpt lat="43.11326" lon="-0.76211">
        <ele>323</ele>
        <time>2022-08-27T20:57:28.000Z</time>
      </trkpt>
      <trkpt lat="43.11327" lon="-0.76057">
        <ele>322</ele>
        <time>2022-08-27T20:57:48.000Z</time>
      </trkpt>
      <trkpt lat="43.11338" lon="-0.75951">
        <ele>320</ele>
        <time>2022-08-27T20:58:02.000Z</time>
      </trkpt>
      <trkpt lat="43.11336" lon="-0.75939">
        <ele>320</ele>
        <time>2022-08-27T20:58:04.000Z</time>
      </trkpt>
      <trkpt lat="43.11331" lon="-0.75924">
        <ele>320</ele>
        <time>2022-08-27T20:58:06.000Z</time>
      </trkpt>
      <trkpt lat="43.11258" lon="-0.75851">
        <ele>323</ele>
        <time>2022-08-27T20:58:22.000Z</time>
      </trkpt>
      <trkpt lat="43.11244" lon="-0.7582">
        <ele>323</ele>
        <time>2022-08-27T20:58:27.000Z</time>
      </trkpt>
      <trkpt lat="43.11237" lon="-0.75785">
        <ele>322</ele>
        <time>2022-08-27T20:58:31.000Z</time>
      </trkpt>
      <trkpt lat="43.11242" lon="-0.7574">
        <ele>320</ele>
        <time>2022-08-27T20:58:37.000Z</time>
      </trkpt>
      <trkpt lat="43.11273" lon="-0.75574">
        <ele>314</ele>
        <time>2022-08-27T20:58:59.000Z</time>
      </trkpt>
      <trkpt lat="43.11274" lon="-0.75205">
        <ele>292</ele>
        <time>2022-08-27T20:59:47.000Z</time>
      </trkpt>
      <trkpt lat="43.11278" lon="-0.75051">
        <ele>289</ele>
        <time>2022-08-27T21:00:07.000Z</time>
      </trkpt>
      <trkpt lat="43.11274" lon="-0.74965">
        <ele>288</ele>
        <time>2022-08-27T21:00:19.000Z</time>
      </trkpt>
      <trkpt lat="43.11265" lon="-0.74906">
        <ele>288</ele>
        <time>2022-08-27T21:00:26.000Z</time>
      </trkpt>
      <trkpt lat="43.11233" lon="-0.74769">
        <ele>299</ele>
        <time>2022-08-27T21:00:45.000Z</time>
      </trkpt>
      <trkpt lat="43.11229" lon="-0.74718">
        <ele>304</ele>
        <time>2022-08-27T21:00:52.000Z</time>
      </trkpt>
      <trkpt lat="43.11234" lon="-0.74658">
        <ele>308</ele>
        <time>2022-08-27T21:01:00.000Z</time>
      </trkpt>
      <trkpt lat="43.11262" lon="-0.74566">
        <ele>310</ele>
        <time>2022-08-27T21:01:13.000Z</time>
      </trkpt>
      <trkpt lat="43.11289" lon="-0.74442">
        <ele>315</ele>
        <time>2022-08-27T21:01:29.000Z</time>
      </trkpt>
      <trkpt lat="43.11352" lon="-0.74251">
        <ele>310</ele>
        <time>2022-08-27T21:01:57.000Z</time>
      </trkpt>
      <trkpt lat="43.1137" lon="-0.74181">
        <ele>309</ele>
        <time>2022-08-27T21:02:06.000Z</time>
      </trkpt>
      <trkpt lat="43.11373" lon="-0.74157">
        <ele>309</ele>
        <time>2022-08-27T21:02:09.000Z</time>
      </trkpt>
      <trkpt lat="43.11372" lon="-0.74131">
        <ele>310</ele>
        <time>2022-08-27T21:02:13.000Z</time>
      </trkpt>
      <trkpt lat="43.11351" lon="-0.7403">
        <ele>312</ele>
        <time>2022-08-27T21:02:26.000Z</time>
      </trkpt>
      <trkpt lat="43.11338" lon="-0.73859">
        <ele>311</ele>
        <time>2022-08-27T21:02:49.000Z</time>
      </trkpt>
      <trkpt lat="43.11338" lon="-0.73809">
        <ele>311</ele>
        <time>2022-08-27T21:02:55.000Z</time>
      </trkpt>
      <trkpt lat="43.11348" lon="-0.73778">
        <ele>311</ele>
        <time>2022-08-27T21:03:00.000Z</time>
      </trkpt>
      <trkpt lat="43.11355" lon="-0.73766">
        <ele>311</ele>
        <time>2022-08-27T21:03:02.000Z</time>
      </trkpt>
      <trkpt lat="43.11253" lon="-0.73619">
        <ele>313</ele>
        <time>2022-08-27T21:03:28.000Z</time>
      </trkpt>
      <trkpt lat="43.11222" lon="-0.73587">
        <ele>311</ele>
        <time>2022-08-27T21:03:35.000Z</time>
      </trkpt>
      <trkpt lat="43.1121" lon="-0.73581">
        <ele>310</ele>
        <time>2022-08-27T21:03:37.000Z</time>
      </trkpt>
      <trkpt lat="43.11187" lon="-0.73573">
        <ele>309</ele>
        <time>2022-08-27T21:03:41.000Z</time>
      </trkpt>
      <trkpt lat="43.10881" lon="-0.73554">
        <ele>299</ele>
        <time>2022-08-27T21:04:36.000Z</time>
      </trkpt>
      <trkpt lat="43.10822" lon="-0.73541">
        <ele>298</ele>
        <time>2022-08-27T21:04:46.000Z</time>
      </trkpt>
      <trkpt lat="43.10784" lon="-0.73528">
        <ele>298</ele>
        <time>2022-08-27T21:04:53.000Z</time>
      </trkpt>
      <trkpt lat="43.10732" lon="-0.73505">
        <ele>299</ele>
        <time>2022-08-27T21:05:03.000Z</time>
      </trkpt>
      <trkpt lat="43.10634" lon="-0.7344">
        <ele>301</ele>
        <time>2022-08-27T21:05:23.000Z</time>
      </trkpt>
      <trkpt lat="43.10609" lon="-0.73416">
        <ele>302</ele>
        <time>2022-08-27T21:05:28.000Z</time>
      </trkpt>
      <trkpt lat="43.10586" lon="-0.73392">
        <ele>302</ele>
        <time>2022-08-27T21:05:33.000Z</time>
      </trkpt>
      <trkpt lat="43.105" lon="-0.73277">
        <ele>303</ele>
        <time>2022-08-27T21:05:55.000Z</time>
      </trkpt>
      <trkpt lat="43.10357" lon="-0.7312">
        <ele>303</ele>
        <time>2022-08-27T21:06:27.000Z</time>
      </trkpt>
      <trkpt lat="43.1033" lon="-0.73081">
        <ele>303</ele>
        <time>2022-08-27T21:06:34.000Z</time>
      </trkpt>
      <trkpt lat="43.10256" lon="-0.72946">
        <ele>303</ele>
        <time>2022-08-27T21:06:56.000Z</time>
      </trkpt>
      <trkpt lat="43.10227" lon="-0.72843">
        <ele>305</ele>
        <time>2022-08-27T21:07:10.000Z</time>
      </trkpt>
      <trkpt lat="43.10213" lon="-0.72807">
        <ele>306</ele>
        <time>2022-08-27T21:07:16.000Z</time>
      </trkpt>
      <trkpt lat="43.10183" lon="-0.72761">
        <ele>307</ele>
        <time>2022-08-27T21:07:24.000Z</time>
      </trkpt>
      <trkpt lat="43.10149" lon="-0.72697">
        <ele>307</ele>
        <time>2022-08-27T21:07:34.000Z</time>
      </trkpt>
      <trkpt lat="43.10058" lon="-0.7247">
        <ele>309</ele>
        <time>2022-08-27T21:08:08.000Z</time>
      </trkpt>
      <trkpt lat="43.10048" lon="-0.72449">
        <ele>309</ele>
        <time>2022-08-27T21:08:11.000Z</time>
      </trkpt>
      <trkpt lat="43.10013" lon="-0.72412">
        <ele>310</ele>
        <time>2022-08-27T21:08:19.000Z</time>
      </trkpt>
      <trkpt lat="43.09961" lon="-0.72334">
        <ele>310</ele>
        <time>2022-08-27T21:08:33.000Z</time>
      </trkpt>
      <trkpt lat="43.09916" lon="-0.72292">
        <ele>313</ele>
        <time>2022-08-27T21:08:42.000Z</time>
      </trkpt>
      <trkpt lat="43.09907" lon="-0.72281">
        <ele>313</ele>
        <time>2022-08-27T21:08:44.000Z</time>
      </trkpt>
      <trkpt lat="43.09848" lon="-0.72231">
        <ele>316</ele>
        <time>2022-08-27T21:08:57.000Z</time>
      </trkpt>
      <trkpt lat="43.09817" lon="-0.72212">
        <ele>316</ele>
        <time>2022-08-27T21:09:03.000Z</time>
      </trkpt>
      <trkpt lat="43.09763" lon="-0.72194">
        <ele>316</ele>
        <time>2022-08-27T21:09:13.000Z</time>
      </trkpt>
      <trkpt lat="43.09744" lon="-0.72181">
        <ele>316</ele>
        <time>2022-08-27T21:09:16.000Z</time>
      </trkpt>
      <trkpt lat="43.09738" lon="-0.72166">
        <ele>316</ele>
        <time>2022-08-27T21:09:19.000Z</time>
      </trkpt>
      <trkpt lat="43.09736" lon="-0.72145">
        <ele>316</ele>
        <time>2022-08-27T21:09:21.000Z</time>
      </trkpt>
      <trkpt lat="43.09738" lon="-0.72081">
        <ele>316</ele>
        <time>2022-08-27T21:09:30.000Z</time>
      </trkpt>
      <trkpt lat="43.09732" lon="-0.72059">
        <ele>317</ele>
        <time>2022-08-27T21:09:33.000Z</time>
      </trkpt>
      <trkpt lat="43.09704" lon="-0.72011">
        <ele>317</ele>
        <time>2022-08-27T21:09:41.000Z</time>
      </trkpt>
      <trkpt lat="43.09685" lon="-0.71989">
        <ele>318</ele>
        <time>2022-08-27T21:09:45.000Z</time>
      </trkpt>
      <trkpt lat="43.09623" lon="-0.71947">
        <ele>319</ele>
        <time>2022-08-27T21:09:58.000Z</time>
      </trkpt>
      <trkpt lat="43.09596" lon="-0.71921">
        <ele>320</ele>
        <time>2022-08-27T21:10:03.000Z</time>
      </trkpt>
      <trkpt lat="43.0956" lon="-0.71854">
        <ele>321</ele>
        <time>2022-08-27T21:10:14.000Z</time>
      </trkpt>
      <trkpt lat="43.0954" lon="-0.71797">
        <ele>322</ele>
        <time>2022-08-27T21:10:22.000Z</time>
      </trkpt>
      <trkpt lat="43.09556" lon="-0.71722">
        <ele>323</ele>
        <time>2022-08-27T21:10:33.000Z</time>
      </trkpt>
      <trkpt lat="43.09557" lon="-0.71705">
        <ele>324</ele>
        <time>2022-08-27T21:10:35.000Z</time>
      </trkpt>
      <trkpt lat="43.09521" lon="-0.71709">
        <ele>325</ele>
        <time>2022-08-27T21:10:41.000Z</time>
      </trkpt>
      <trkpt lat="43.09494" lon="-0.71693">
        <ele>326</ele>
        <time>2022-08-27T21:10:47.000Z</time>
      </trkpt>
      <trkpt lat="43.095" lon="-0.71679">
        <ele>326</ele>
        <time>2022-08-27T21:10:49.000Z</time>
      </trkpt>
      <trkpt lat="43.09508" lon="-0.7164">
        <ele>326</ele>
        <time>2022-08-27T21:10:54.000Z</time>
      </trkpt>
      <trkpt lat="43.09517" lon="-0.71531">
        <ele>325</ele>
        <time>2022-08-27T21:11:08.000Z</time>
      </trkpt>
      <trkpt lat="43.09525" lon="-0.71446">
        <ele>332</ele>
        <time>2022-08-27T21:11:20.000Z</time>
      </trkpt>
      <trkpt lat="43.09494" lon="-0.71353">
        <ele>333</ele>
        <time>2022-08-27T21:11:33.000Z</time>
      </trkpt>
      <trkpt lat="43.09495" lon="-0.71342">
        <ele>334</ele>
        <time>2022-08-27T21:11:35.000Z</time>
      </trkpt>
      <trkpt lat="43.0956" lon="-0.71215">
        <ele>353</ele>
        <time>2022-08-27T21:11:55.000Z</time>
      </trkpt>
      <trkpt lat="43.09564" lon="-0.712">
        <ele>354</ele>
        <time>2022-08-27T21:11:57.000Z</time>
      </trkpt>
      <trkpt lat="43.09572" lon="-0.71131">
        <ele>356</ele>
        <time>2022-08-27T21:12:06.000Z</time>
      </trkpt>
      <trkpt lat="43.09576" lon="-0.71059">
        <ele>359</ele>
        <time>2022-08-27T21:12:15.000Z</time>
      </trkpt>
      <trkpt lat="43.09568" lon="-0.71011">
        <ele>362</ele>
        <time>2022-08-27T21:12:22.000Z</time>
      </trkpt>
      <trkpt lat="43.09553" lon="-0.7097">
        <ele>365</ele>
        <time>2022-08-27T21:12:28.000Z</time>
      </trkpt>
      <trkpt lat="43.09529" lon="-0.70941">
        <ele>366</ele>
        <time>2022-08-27T21:12:34.000Z</time>
      </trkpt>
      <trkpt lat="43.09521" lon="-0.70946">
        <ele>365</ele>
        <time>2022-08-27T21:12:35.000Z</time>
      </trkpt>
      <trkpt lat="43.09518" lon="-0.70959">
        <ele>365</ele>
        <time>2022-08-27T21:12:37.000Z</time>
      </trkpt>
      <trkpt lat="43.09522" lon="-0.70999">
        <ele>364</ele>
        <time>2022-08-27T21:12:42.000Z</time>
      </trkpt>
      <trkpt lat="43.09536" lon="-0.71059">
        <ele>362</ele>
        <time>2022-08-27T21:12:50.000Z</time>
      </trkpt>
      <trkpt lat="43.09533" lon="-0.71083">
        <ele>362</ele>
        <time>2022-08-27T21:12:53.000Z</time>
      </trkpt>
      <trkpt lat="43.09464" lon="-0.7119">
        <ele>359</ele>
        <time>2022-08-27T21:13:12.000Z</time>
      </trkpt>
      <trkpt lat="43.09432" lon="-0.71209">
        <ele>361</ele>
        <time>2022-08-27T21:13:18.000Z</time>
      </trkpt>
      <trkpt lat="43.09357" lon="-0.71223">
        <ele>361</ele>
        <time>2022-08-27T21:13:32.000Z</time>
      </trkpt>
      <trkpt lat="43.09339" lon="-0.71219">
        <ele>362</ele>
        <time>2022-08-27T21:13:35.000Z</time>
      </trkpt>
      <trkpt lat="43.09311" lon="-0.71204">
        <ele>364</ele>
        <time>2022-08-27T21:13:41.000Z</time>
      </trkpt>
      <trkpt lat="43.09266" lon="-0.71169">
        <ele>369</ele>
        <time>2022-08-27T21:13:50.000Z</time>
      </trkpt>
      <trkpt lat="43.09205" lon="-0.71144">
        <ele>364</ele>
        <time>2022-08-27T21:14:01.000Z</time>
      </trkpt>
      <trkpt lat="43.092" lon="-0.71133">
        <ele>365</ele>
        <time>2022-08-27T21:14:03.000Z</time>
      </trkpt>
      <trkpt lat="43.09246" lon="-0.71051">
        <ele>385</ele>
        <time>2022-08-27T21:14:17.000Z</time>
      </trkpt>
      <trkpt lat="43.09251" lon="-0.71024">
        <ele>389</ele>
        <time>2022-08-27T21:14:20.000Z</time>
      </trkpt>
      <trkpt lat="43.09246" lon="-0.71006">
        <ele>390</ele>
        <time>2022-08-27T21:14:23.000Z</time>
      </trkpt>
      <trkpt lat="43.09236" lon="-0.70997">
        <ele>389</ele>
        <time>2022-08-27T21:14:25.000Z</time>
      </trkpt>
      <trkpt lat="43.09197" lon="-0.7099">
        <ele>383</ele>
        <time>2022-08-27T21:14:32.000Z</time>
      </trkpt>
      <trkpt lat="43.0918" lon="-0.7098">
        <ele>381</ele>
        <time>2022-08-27T21:14:35.000Z</time>
      </trkpt>
      <trkpt lat="43.09167" lon="-0.70938">
        <ele>384</ele>
        <time>2022-08-27T21:14:41.000Z</time>
      </trkpt>
      <trkpt lat="43.0917" lon="-0.7089">
        <ele>386</ele>
        <time>2022-08-27T21:14:48.000Z</time>
      </trkpt>
      <trkpt lat="43.09176" lon="-0.70876">
        <ele>388</ele>
        <time>2022-08-27T21:14:50.000Z</time>
      </trkpt>
      <trkpt lat="43.09182" lon="-0.70869">
        <ele>389</ele>
        <time>2022-08-27T21:14:51.000Z</time>
      </trkpt>
      <trkpt lat="43.09211" lon="-0.70858">
        <ele>395</ele>
        <time>2022-08-27T21:14:56.000Z</time>
      </trkpt>
      <trkpt lat="43.0924" lon="-0.70841">
        <ele>400</ele>
        <time>2022-08-27T21:15:02.000Z</time>
      </trkpt>
      <trkpt lat="43.09256" lon="-0.70814">
        <ele>403</ele>
        <time>2022-08-27T21:15:07.000Z</time>
      </trkpt>
      <trkpt lat="43.09258" lon="-0.70788">
        <ele>404</ele>
        <time>2022-08-27T21:15:10.000Z</time>
      </trkpt>
      <trkpt lat="43.09252" lon="-0.70768">
        <ele>404</ele>
        <time>2022-08-27T21:15:13.000Z</time>
      </trkpt>
      <trkpt lat="43.09242" lon="-0.7076">
        <ele>403</ele>
        <time>2022-08-27T21:15:15.000Z</time>
      </trkpt>
      <trkpt lat="43.09212" lon="-0.70744">
        <ele>400</ele>
        <time>2022-08-27T21:15:21.000Z</time>
      </trkpt>
      <trkpt lat="43.09175" lon="-0.70729">
        <ele>397</ele>
        <time>2022-08-27T21:15:27.000Z</time>
      </trkpt>
      <trkpt lat="43.09154" lon="-0.70708">
        <ele>395</ele>
        <time>2022-08-27T21:15:32.000Z</time>
      </trkpt>
      <trkpt lat="43.09153" lon="-0.70699">
        <ele>396</ele>
        <time>2022-08-27T21:15:33.000Z</time>
      </trkpt>
      <trkpt lat="43.09155" lon="-0.70684">
        <ele>398</ele>
        <time>2022-08-27T21:15:35.000Z</time>
      </trkpt>
      <trkpt lat="43.09173" lon="-0.70642">
        <ele>404</ele>
        <time>2022-08-27T21:15:42.000Z</time>
      </trkpt>
      <trkpt lat="43.09206" lon="-0.70598">
        <ele>411</ele>
        <time>2022-08-27T21:15:50.000Z</time>
      </trkpt>
      <trkpt lat="43.09212" lon="-0.70584">
        <ele>413</ele>
        <time>2022-08-27T21:15:52.000Z</time>
      </trkpt>
      <trkpt lat="43.09198" lon="-0.70519">
        <ele>416</ele>
        <time>2022-08-27T21:16:01.000Z</time>
      </trkpt>
      <trkpt lat="43.09197" lon="-0.70496">
        <ele>417</ele>
        <time>2022-08-27T21:16:04.000Z</time>
      </trkpt>
      <trkpt lat="43.09205" lon="-0.70456">
        <ele>420</ele>
        <time>2022-08-27T21:16:09.000Z</time>
      </trkpt>
      <trkpt lat="43.09235" lon="-0.70414">
        <ele>422</ele>
        <time>2022-08-27T21:16:17.000Z</time>
      </trkpt>
      <trkpt lat="43.0924" lon="-0.704">
        <ele>421</ele>
        <time>2022-08-27T21:16:19.000Z</time>
      </trkpt>
      <trkpt lat="43.09241" lon="-0.70325">
        <ele>419</ele>
        <time>2022-08-27T21:16:29.000Z</time>
      </trkpt>
      <trkpt lat="43.09252" lon="-0.70246">
        <ele>414</ele>
        <time>2022-08-27T21:16:39.000Z</time>
      </trkpt>
      <trkpt lat="43.09244" lon="-0.70224">
        <ele>412</ele>
        <time>2022-08-27T21:16:42.000Z</time>
      </trkpt>
      <trkpt lat="43.09231" lon="-0.70216">
        <ele>411</ele>
        <time>2022-08-27T21:16:45.000Z</time>
      </trkpt>
      <trkpt lat="43.09166" lon="-0.7024">
        <ele>416</ele>
        <time>2022-08-27T21:16:57.000Z</time>
      </trkpt>
      <trkpt lat="43.09148" lon="-0.70245">
        <ele>419</ele>
        <time>2022-08-27T21:17:00.000Z</time>
      </trkpt>
      <trkpt lat="43.09126" lon="-0.70236">
        <ele>421</ele>
        <time>2022-08-27T21:17:04.000Z</time>
      </trkpt>
      <trkpt lat="43.09123" lon="-0.70223">
        <ele>421</ele>
        <time>2022-08-27T21:17:06.000Z</time>
      </trkpt>
      <trkpt lat="43.09125" lon="-0.7021">
        <ele>420</ele>
        <time>2022-08-27T21:17:08.000Z</time>
      </trkpt>
      <trkpt lat="43.09136" lon="-0.70194">
        <ele>418</ele>
        <time>2022-08-27T21:17:11.000Z</time>
      </trkpt>
      <trkpt lat="43.09196" lon="-0.70139">
        <ele>407</ele>
        <time>2022-08-27T21:17:24.000Z</time>
      </trkpt>
      <trkpt lat="43.09225" lon="-0.701">
        <ele>401</ele>
        <time>2022-08-27T21:17:31.000Z</time>
      </trkpt>
      <trkpt lat="43.09233" lon="-0.70075">
        <ele>398</ele>
        <time>2022-08-27T21:17:34.000Z</time>
      </trkpt>
      <trkpt lat="43.09228" lon="-0.70051">
        <ele>398</ele>
        <time>2022-08-27T21:17:38.000Z</time>
      </trkpt>
      <trkpt lat="43.09224" lon="-0.70048">
        <ele>399</ele>
        <time>2022-08-27T21:17:39.000Z</time>
      </trkpt>
      <trkpt lat="43.09161" lon="-0.70044">
        <ele>411</ele>
        <time>2022-08-27T21:17:50.000Z</time>
      </trkpt>
      <trkpt lat="43.09155" lon="-0.70033">
        <ele>412</ele>
        <time>2022-08-27T21:17:52.000Z</time>
      </trkpt>
      <trkpt lat="43.09159" lon="-0.70015">
        <ele>410</ele>
        <time>2022-08-27T21:17:54.000Z</time>
      </trkpt>
      <trkpt lat="43.09165" lon="-0.70008">
        <ele>409</ele>
        <time>2022-08-27T21:17:56.000Z</time>
      </trkpt>
      <trkpt lat="43.0922" lon="-0.6996">
        <ele>397</ele>
        <time>2022-08-27T21:18:07.000Z</time>
      </trkpt>
      <trkpt lat="43.09223" lon="-0.6995">
        <ele>397</ele>
        <time>2022-08-27T21:18:09.000Z</time>
      </trkpt>
      <trkpt lat="43.09232" lon="-0.69904">
        <ele>394</ele>
        <time>2022-08-27T21:18:15.000Z</time>
      </trkpt>
      <trkpt lat="43.0923" lon="-0.69866">
        <ele>394</ele>
        <time>2022-08-27T21:18:20.000Z</time>
      </trkpt>
      <trkpt lat="43.09223" lon="-0.69844">
        <ele>395</ele>
        <time>2022-08-27T21:18:23.000Z</time>
      </trkpt>
      <trkpt lat="43.09197" lon="-0.69823">
        <ele>402</ele>
        <time>2022-08-27T21:18:28.000Z</time>
      </trkpt>
      <trkpt lat="43.09195" lon="-0.69809">
        <ele>402</ele>
        <time>2022-08-27T21:18:30.000Z</time>
      </trkpt>
      <trkpt lat="43.09219" lon="-0.69781">
        <ele>394</ele>
        <time>2022-08-27T21:18:36.000Z</time>
      </trkpt>
      <trkpt lat="43.0923" lon="-0.69761">
        <ele>390</ele>
        <time>2022-08-27T21:18:39.000Z</time>
      </trkpt>
      <trkpt lat="43.09246" lon="-0.69699">
        <ele>387</ele>
        <time>2022-08-27T21:18:48.000Z</time>
      </trkpt>
      <trkpt lat="43.09259" lon="-0.69619">
        <ele>383</ele>
        <time>2022-08-27T21:18:58.000Z</time>
      </trkpt>
      <trkpt lat="43.09258" lon="-0.69598">
        <ele>382</ele>
        <time>2022-08-27T21:19:01.000Z</time>
      </trkpt>
      <trkpt lat="43.09242" lon="-0.69549">
        <ele>380</ele>
        <time>2022-08-27T21:19:08.000Z</time>
      </trkpt>
      <trkpt lat="43.09243" lon="-0.69487">
        <ele>372</ele>
        <time>2022-08-27T21:19:16.000Z</time>
      </trkpt>
      <trkpt lat="43.09236" lon="-0.69421">
        <ele>370</ele>
        <time>2022-08-27T21:19:25.000Z</time>
      </trkpt>
      <trkpt lat="43.09211" lon="-0.69339">
        <ele>377</ele>
        <time>2022-08-27T21:19:36.000Z</time>
      </trkpt>
      <trkpt lat="43.09195" lon="-0.69223">
        <ele>373</ele>
        <time>2022-08-27T21:19:52.000Z</time>
      </trkpt>
      <trkpt lat="43.09197" lon="-0.6918">
        <ele>368</ele>
        <time>2022-08-27T21:19:57.000Z</time>
      </trkpt>
      <trkpt lat="43.09251" lon="-0.68992">
        <ele>360</ele>
        <time>2022-08-27T21:20:24.000Z</time>
      </trkpt>
      <trkpt lat="43.09268" lon="-0.68965">
        <ele>364</ele>
        <time>2022-08-27T21:20:28.000Z</time>
      </trkpt>
      <trkpt lat="43.09282" lon="-0.68932">
        <ele>365</ele>
        <time>2022-08-27T21:20:33.000Z</time>
      </trkpt>
      <trkpt lat="43.09298" lon="-0.6874">
        <ele>351</ele>
        <time>2022-08-27T21:20:58.000Z</time>
      </trkpt>
      <trkpt lat="43.09302" lon="-0.68723">
        <ele>351</ele>
        <time>2022-08-27T21:21:01.000Z</time>
      </trkpt>
      <trkpt lat="43.09326" lon="-0.68671">
        <ele>351</ele>
        <time>2022-08-27T21:21:09.000Z</time>
      </trkpt>
      <trkpt lat="43.09375" lon="-0.68583">
        <ele>350</ele>
        <time>2022-08-27T21:21:23.000Z</time>
      </trkpt>
      <trkpt lat="43.09389" lon="-0.68483">
        <ele>349</ele>
        <time>2022-08-27T21:21:36.000Z</time>
      </trkpt>
      <trkpt lat="43.09394" lon="-0.68467">
        <ele>349</ele>
        <time>2022-08-27T21:21:39.000Z</time>
      </trkpt>
      <trkpt lat="43.09405" lon="-0.68451">
        <ele>348</ele>
        <time>2022-08-27T21:21:42.000Z</time>
      </trkpt>
      <trkpt lat="43.09467" lon="-0.68426">
        <ele>349</ele>
        <time>2022-08-27T21:21:53.000Z</time>
      </trkpt>
      <trkpt lat="43.09485" lon="-0.68409">
        <ele>348</ele>
        <time>2022-08-27T21:21:57.000Z</time>
      </trkpt>
      <trkpt lat="43.0953" lon="-0.68312">
        <ele>353</ele>
        <time>2022-08-27T21:22:12.000Z</time>
      </trkpt>
      <trkpt lat="43.09538" lon="-0.68282">
        <ele>356</ele>
        <time>2022-08-27T21:22:16.000Z</time>
      </trkpt>
      <trkpt lat="43.09577" lon="-0.67287">
        <ele>351</ele>
        <time>2022-08-27T21:24:26.000Z</time>
      </trkpt>
      <trkpt lat="43.09583" lon="-0.67257">
        <ele>351</ele>
        <time>2022-08-27T21:24:30.000Z</time>
      </trkpt>
      <trkpt lat="43.09594" lon="-0.67229">
        <ele>351</ele>
        <time>2022-08-27T21:24:34.000Z</time>
      </trkpt>
      <trkpt lat="43.096" lon="-0.67221">
        <ele>350</ele>
        <time>2022-08-27T21:24:35.000Z</time>
      </trkpt>
      <trkpt lat="43.0966" lon="-0.67168">
        <ele>337</ele>
        <time>2022-08-27T21:24:48.000Z</time>
      </trkpt>
      <trkpt lat="43.09668" lon="-0.67156">
        <ele>335</ele>
        <time>2022-08-27T21:24:50.000Z</time>
      </trkpt>
      <trkpt lat="43.09675" lon="-0.67133">
        <ele>336</ele>
        <time>2022-08-27T21:24:53.000Z</time>
      </trkpt>
      <trkpt lat="43.09677" lon="-0.67102">
        <ele>337</ele>
        <time>2022-08-27T21:24:57.000Z</time>
      </trkpt>
      <trkpt lat="43.09671" lon="-0.67049">
        <ele>339</ele>
        <time>2022-08-27T21:25:04.000Z</time>
      </trkpt>
      <trkpt lat="43.09673" lon="-0.67017">
        <ele>340</ele>
        <time>2022-08-27T21:25:09.000Z</time>
      </trkpt>
      <trkpt lat="43.0971" lon="-0.66912">
        <ele>335</ele>
        <time>2022-08-27T21:25:24.000Z</time>
      </trkpt>
      <trkpt lat="43.09736" lon="-0.6685">
        <ele>335</ele>
        <time>2022-08-27T21:25:33.000Z</time>
      </trkpt>
      <trkpt lat="43.09794" lon="-0.6675">
        <ele>330</ele>
        <time>2022-08-27T21:25:50.000Z</time>
      </trkpt>
      <trkpt lat="43.09961" lon="-0.66504">
        <ele>332</ele>
        <time>2022-08-27T21:26:33.000Z</time>
      </trkpt>
      <trkpt lat="43.10061" lon="-0.663">
        <ele>330</ele>
        <time>2022-08-27T21:27:05.000Z</time>
      </trkpt>
      <trkpt lat="43.10112" lon="-0.66213">
        <ele>330</ele>
        <time>2022-08-27T21:27:20.000Z</time>
      </trkpt>
      <trkpt lat="43.10115" lon="-0.66194">
        <ele>329</ele>
        <time>2022-08-27T21:27:22.000Z</time>
      </trkpt>
      <trkpt lat="43.10117" lon="-0.66145">
        <ele>328</ele>
        <time>2022-08-27T21:27:28.000Z</time>
      </trkpt>
      <trkpt lat="43.1009" lon="-0.66033">
        <ele>320</ele>
        <time>2022-08-27T21:27:44.000Z</time>
      </trkpt>
      <trkpt lat="43.10093" lon="-0.66012">
        <ele>319</ele>
        <time>2022-08-27T21:27:47.000Z</time>
      </trkpt>
      <trkpt lat="43.10113" lon="-0.65991">
        <ele>319</ele>
        <time>2022-08-27T21:27:51.000Z</time>
      </trkpt>
      <trkpt lat="43.10138" lon="-0.65979">
        <ele>319</ele>
        <time>2022-08-27T21:27:56.000Z</time>
      </trkpt>
      <trkpt lat="43.10201" lon="-0.65974">
        <ele>318</ele>
        <time>2022-08-27T21:28:07.000Z</time>
      </trkpt>
      <trkpt lat="43.10224" lon="-0.65969">
        <ele>317</ele>
        <time>2022-08-27T21:28:11.000Z</time>
      </trkpt>
      <trkpt lat="43.10271" lon="-0.65927">
        <ele>312</ele>
        <time>2022-08-27T21:28:21.000Z</time>
      </trkpt>
      <trkpt lat="43.10301" lon="-0.65895">
        <ele>311</ele>
        <time>2022-08-27T21:28:28.000Z</time>
      </trkpt>
      <trkpt lat="43.10329" lon="-0.65769">
        <ele>309</ele>
        <time>2022-08-27T21:28:45.000Z</time>
      </trkpt>
      <trkpt lat="43.10357" lon="-0.65644">
        <ele>303</ele>
        <time>2022-08-27T21:29:02.000Z</time>
      </trkpt>
      <trkpt lat="43.10383" lon="-0.65572">
        <ele>301</ele>
        <time>2022-08-27T21:29:13.000Z</time>
      </trkpt>
      <trkpt lat="43.10428" lon="-0.65459">
        <ele>300</ele>
        <time>2022-08-27T21:29:29.000Z</time>
      </trkpt>
      <trkpt lat="43.10445" lon="-0.65429">
        <ele>300</ele>
        <time>2022-08-27T21:29:34.000Z</time>
      </trkpt>
      <trkpt lat="43.1056" lon="-0.65303">
        <ele>307</ele>
        <time>2022-08-27T21:30:00.000Z</time>
      </trkpt>
      <trkpt lat="43.10569" lon="-0.65283">
        <ele>308</ele>
        <time>2022-08-27T21:30:03.000Z</time>
      </trkpt>
      <trkpt lat="43.10572" lon="-0.65249">
        <ele>309</ele>
        <time>2022-08-27T21:30:08.000Z</time>
      </trkpt>
      <trkpt lat="43.10566" lon="-0.65183">
        <ele>310</ele>
        <time>2022-08-27T21:30:17.000Z</time>
      </trkpt>
      <trkpt lat="43.10593" lon="-0.64847">
        <ele>302</ele>
        <time>2022-08-27T21:31:01.000Z</time>
      </trkpt>
      <trkpt lat="43.10596" lon="-0.64772">
        <ele>303</ele>
        <time>2022-08-27T21:31:10.000Z</time>
      </trkpt>
      <trkpt lat="43.10634" lon="-0.64607">
        <ele>312</ele>
        <time>2022-08-27T21:31:33.000Z</time>
      </trkpt>
      <trkpt lat="43.10637" lon="-0.64575">
        <ele>312</ele>
        <time>2022-08-27T21:31:37.000Z</time>
      </trkpt>
      <trkpt lat="43.10629" lon="-0.64443">
        <ele>305</ele>
        <time>2022-08-27T21:31:54.000Z</time>
      </trkpt>
      <trkpt lat="43.10662" lon="-0.64302">
        <ele>306</ele>
        <time>2022-08-27T21:32:14.000Z</time>
      </trkpt>
      <trkpt lat="43.10718" lon="-0.6416">
        <ele>315</ele>
        <time>2022-08-27T21:32:35.000Z</time>
      </trkpt>
      <trkpt lat="43.10748" lon="-0.64052">
        <ele>308</ele>
        <time>2022-08-27T21:32:50.000Z</time>
      </trkpt>
      <trkpt lat="43.1077" lon="-0.63912">
        <ele>303</ele>
        <time>2022-08-27T21:33:08.000Z</time>
      </trkpt>
      <trkpt lat="43.10811" lon="-0.6379">
        <ele>307</ele>
        <time>2022-08-27T21:33:26.000Z</time>
      </trkpt>
      <trkpt lat="43.10834" lon="-0.63739">
        <ele>301</ele>
        <time>2022-08-27T21:33:34.000Z</time>
      </trkpt>
      <trkpt lat="43.1086" lon="-0.63696">
        <ele>307</ele>
        <time>2022-08-27T21:33:41.000Z</time>
      </trkpt>
      <trkpt lat="43.10939" lon="-0.63588">
        <ele>307</ele>
        <time>2022-08-27T21:34:01.000Z</time>
      </trkpt>
      <trkpt lat="43.10948" lon="-0.63567">
        <ele>308</ele>
        <time>2022-08-27T21:34:04.000Z</time>
      </trkpt>
      <trkpt lat="43.10958" lon="-0.63532">
        <ele>307</ele>
        <time>2022-08-27T21:34:09.000Z</time>
      </trkpt>
      <trkpt lat="43.10966" lon="-0.63482">
        <ele>304</ele>
        <time>2022-08-27T21:34:15.000Z</time>
      </trkpt>
      <trkpt lat="43.10972" lon="-0.63371">
        <ele>297</ele>
        <time>2022-08-27T21:34:30.000Z</time>
      </trkpt>
      <trkpt lat="43.10966" lon="-0.63284">
        <ele>296</ele>
        <time>2022-08-27T21:34:41.000Z</time>
      </trkpt>
      <trkpt lat="43.10974" lon="-0.6325">
        <ele>294</ele>
        <time>2022-08-27T21:34:46.000Z</time>
      </trkpt>
      <trkpt lat="43.10987" lon="-0.63232">
        <ele>293</ele>
        <time>2022-08-27T21:34:49.000Z</time>
      </trkpt>
      <trkpt lat="43.11" lon="-0.63219">
        <ele>290</ele>
        <time>2022-08-27T21:34:52.000Z</time>
      </trkpt>
      <trkpt lat="43.11094" lon="-0.63168">
        <ele>296</ele>
        <time>2022-08-27T21:35:10.000Z</time>
      </trkpt>
      <trkpt lat="43.11117" lon="-0.63148">
        <ele>303</ele>
        <time>2022-08-27T21:35:15.000Z</time>
      </trkpt>
      <trkpt lat="43.11139" lon="-0.63076">
        <ele>307</ele>
        <time>2022-08-27T21:35:25.000Z</time>
      </trkpt>
      <trkpt lat="43.11138" lon="-0.63024">
        <ele>305</ele>
        <time>2022-08-27T21:35:32.000Z</time>
      </trkpt>
      <trkpt lat="43.11119" lon="-0.62941">
        <ele>298</ele>
        <time>2022-08-27T21:35:43.000Z</time>
      </trkpt>
      <trkpt lat="43.111" lon="-0.62895">
        <ele>293</ele>
        <time>2022-08-27T21:35:50.000Z</time>
      </trkpt>
      <trkpt lat="43.10999" lon="-0.62756">
        <ele>287</ele>
        <time>2022-08-27T21:36:16.000Z</time>
      </trkpt>
      <trkpt lat="43.10991" lon="-0.6274">
        <ele>289</ele>
        <time>2022-08-27T21:36:18.000Z</time>
      </trkpt>
      <trkpt lat="43.10987" lon="-0.62721">
        <ele>289</ele>
        <time>2022-08-27T21:36:21.000Z</time>
      </trkpt>
      <trkpt lat="43.10985" lon="-0.62665">
        <ele>287</ele>
        <time>2022-08-27T21:36:28.000Z</time>
      </trkpt>
      <trkpt lat="43.10995" lon="-0.62534">
        <ele>277</ele>
        <time>2022-08-27T21:36:45.000Z</time>
      </trkpt>
    </trkseg>
  </trk>
</gpx>